Wetterdaten: Freitag, 27.02.2026
Datum Zeit Temp. Aussen Temp. o. S. Temp +5cm Feuchte Auss Luftdruck Regen Sonnenschein Regendauer Solar Windböen Empfang
27.02.2026 00:00 12,2 °C 10,6 °C 7,2 °C 86 % 1018,8 hPa 0,0 l/m² 0 min 2 min 0 W/m² 6,4 km/h (2 Bft) 100,00 %
27.02.2026 00:02 12,1 °C 10,6 °C 7,2 °C 86 % 1018,8 hPa 0,0 l/m² 0 min 2 min 0 W/m² 3,2 km/h (1 Bft) 97,37 %
27.02.2026 00:04 12,1 °C 10,6 °C 7,2 °C 86 % 1018,8 hPa 0,0 l/m² 0 min 2 min 0 W/m² 3,2 km/h (1 Bft) 95,92 %
27.02.2026 00:08 12,1 °C 10,6 °C 7,2 °C 86 % 1018,8 hPa 0,0 l/m² 0 min 4 min 0 W/m² 12,9 km/h (3 Bft) 95,31 %
27.02.2026 00:12 11,9 °C 10,6 °C 7,2 °C 86 % 1018,8 hPa 0,0 l/m² 0 min 4 min 0 W/m² 3,2 km/h (1 Bft) 8,70 %
27.02.2026 00:14 11,9 °C 10,6 °C 7,2 °C 86 % 1018,8 hPa 0,0 l/m² 0 min 2 min 0 W/m² 3,2 km/h (1 Bft) 91,49 %
27.02.2026 00:16 11,9 °C 10,6 °C 6,7 °C 86 % 1018,8 hPa 0,0 l/m² 0 min 2 min 0 W/m² 9,7 km/h (2 Bft) 100,00 %
27.02.2026 00:18 11,8 °C 10,6 °C 6,7 °C 87 % 1018,8 hPa 0,0 l/m² 0 min 2 min 0 W/m² 6,4 km/h (2 Bft) 93,62 %
27.02.2026 00:20 11,8 °C 10,6 °C 6,7 °C 87 % 1018,8 hPa 0,0 l/m² 0 min 2 min 0 W/m² 3,2 km/h (1 Bft) 100,00 %
27.02.2026 00:22 11,8 °C 10,6 °C 6,7 °C 87 % 1018,8 hPa 0,0 l/m² 0 min 2 min 0 W/m² 3,2 km/h (1 Bft) 100,00 %
27.02.2026 00:24 11,8 °C 10,6 °C 6,7 °C 87 % 1018,9 hPa 0,0 l/m² 0 min 2 min 0 W/m² 3,2 km/h (1 Bft) 95,65 %
27.02.2026 00:26 11,7 °C 10,0 °C 6,7 °C 87 % 1018,9 hPa 0,0 l/m² 0 min 2 min 0 W/m² 6,4 km/h (2 Bft) 95,74 %
27.02.2026 00:28 11,7 °C 10,0 °C 6,7 °C 87 % 1018,9 hPa 0,0 l/m² 0 min 2 min 0 W/m² 16,1 km/h (3 Bft) 95,74 %
27.02.2026 00:30 11,7 °C 10,0 °C 6,7 °C 87 % 1018,9 hPa 0,0 l/m² 0 min 2 min 0 W/m² 3,2 km/h (1 Bft) 97,87 %
27.02.2026 00:32 11,7 °C 10,0 °C 6,7 °C 87 % 1018,9 hPa 0,0 l/m² 0 min 2 min 0 W/m² 6,4 km/h (2 Bft) 95,74 %
27.02.2026 00:34 11,6 °C 10,0 °C 6,7 °C 87 % 1018,9 hPa 0,0 l/m² 0 min 2 min 0 W/m² 3,2 km/h (1 Bft) 95,74 %
27.02.2026 00:36 11,6 °C 10,0 °C 6,1 °C 87 % 1018,9 hPa 0,0 l/m² 0 min 2 min 0 W/m² 3,2 km/h (1 Bft) 97,83 %
27.02.2026 00:38 11,6 °C 10,0 °C 6,1 °C 87 % 1018,9 hPa 0,0 l/m² 0 min 2 min 0 W/m² 6,4 km/h (2 Bft) 97,87 %
27.02.2026 00:40 11,6 °C 10,0 °C 6,1 °C 87 % 1018,9 hPa 0,0 l/m² 0 min 2 min 0 W/m² 3,2 km/h (1 Bft) 97,87 %
27.02.2026 00:42 11,5 °C 10,0 °C 6,1 °C 88 % 1018,9 hPa 0,0 l/m² 0 min 2 min 0 W/m² 6,4 km/h (2 Bft) 95,74 %
27.02.2026 00:44 11,5 °C 10,0 °C 6,1 °C 88 % 1018,9 hPa 0,0 l/m² 0 min 2 min 0 W/m² 9,7 km/h (2 Bft) 97,87 %
27.02.2026 00:46 11,4 °C 10,0 °C 6,1 °C 88 % 1018,9 hPa 0,0 l/m² 0 min 2 min 0 W/m² 6,4 km/h (2 Bft) 93,62 %
27.02.2026 00:48 11,4 °C 10,0 °C 6,1 °C 88 % 1018,9 hPa 0,0 l/m² 0 min 2 min 0 W/m² 3,2 km/h (1 Bft) 95,65 %
27.02.2026 00:50 11,4 °C 10,0 °C 6,1 °C 88 % 1018,9 hPa 0,0 l/m² 0 min 2 min 0 W/m² 3,2 km/h (1 Bft) 95,74 %
27.02.2026 00:52 11,4 °C 10,0 °C 6,1 °C 88 % 1018,9 hPa 0,0 l/m² 0 min 2 min 0 W/m² 3,2 km/h (1 Bft) 95,74 %
27.02.2026 00:54 11,4 °C 10,0 °C 6,1 °C 88 % 1019,0 hPa 0,0 l/m² 0 min 2 min 0 W/m² 6,4 km/h (2 Bft) 90,24 %
27.02.2026 00:56 11,3 °C 10,0 °C 6,1 °C 88 % 1018,9 hPa 0,0 l/m² 0 min 2 min 0 W/m² 0,0 km/h (0 Bft) 93,62 %
27.02.2026 00:58 11,3 °C 10,0 °C 6,1 °C 88 % 1019,0 hPa 0,0 l/m² 0 min 2 min 0 W/m² 3,2 km/h (1 Bft) 92,00 %
27.02.2026 01:00 11,3 °C 10,0 °C 5,6 °C 88 % 1018,9 hPa 0,0 l/m² 0 min 2 min 0 W/m² 3,2 km/h (1 Bft) 91,49 %
27.02.2026 01:02 11,3 °C 10,0 °C 5,6 °C 88 % 1019,0 hPa 0,0 l/m² 0 min 2 min 0 W/m² 0,0 km/h (0 Bft) 93,48 %
27.02.2026 01:04 11,3 °C 10,0 °C 5,6 °C 89 % 1018,9 hPa 0,0 l/m² 0 min 2 min 0 W/m² 0,0 km/h (0 Bft) 94,00 %
27.02.2026 01:06 11,2 °C 9,4 °C 5,6 °C 89 % 1018,9 hPa 0,0 l/m² 0 min 2 min 0 W/m² 3,2 km/h (1 Bft) 95,74 %
27.02.2026 01:08 11,2 °C 9,4 °C 5,6 °C 88 % 1019,0 hPa 0,0 l/m² 0 min 2 min 0 W/m² 0,0 km/h (0 Bft) 95,74 %
27.02.2026 01:10 11,2 °C 9,4 °C 5,6 °C 88 % 1019,0 hPa 0,0 l/m² 0 min 2 min 0 W/m² 0,0 km/h (0 Bft) 95,65 %
27.02.2026 01:12 11,1 °C 9,4 °C 5,6 °C 88 % 1019,0 hPa 0,0 l/m² 0 min 2 min 0 W/m² 0,0 km/h (0 Bft) 91,49 %
27.02.2026 01:14 11,1 °C 9,4 °C 5,0 °C 89 % 1019,0 hPa 0,0 l/m² 0 min 2 min 0 W/m² 0,0 km/h (0 Bft) 93,62 %
27.02.2026 01:16 11,1 °C 9,4 °C 5,0 °C 89 % 1019,0 hPa 0,0 l/m² 0 min 2 min 0 W/m² 3,2 km/h (1 Bft) 95,74 %
27.02.2026 01:18 11,1 °C 9,4 °C 5,0 °C 89 % 1019,0 hPa 0,0 l/m² 0 min 2 min 0 W/m² 3,2 km/h (1 Bft) 93,62 %
27.02.2026 01:20 11,1 °C 9,4 °C 5,0 °C 89 % 1018,9 hPa 0,0 l/m² 0 min 2 min 0 W/m² 0,0 km/h (0 Bft) 93,62 %
27.02.2026 01:22 11,0 °C 9,4 °C 5,0 °C 89 % 1019,0 hPa 0,0 l/m² 0 min 2 min 0 W/m² 0,0 km/h (0 Bft) 93,48 %
27.02.2026 01:24 11,0 °C 9,4 °C 5,6 °C 89 % 1019,0 hPa 0,0 l/m² 0 min 2 min 0 W/m² 0,0 km/h (0 Bft) 95,74 %
27.02.2026 01:26 10,9 °C 9,4 °C 5,6 °C 89 % 1018,9 hPa 0,0 l/m² 0 min 2 min 0 W/m² 0,0 km/h (0 Bft) 93,62 %
27.02.2026 01:28 10,9 °C 9,4 °C 5,6 °C 89 % 1018,9 hPa 0,0 l/m² 0 min 2 min 0 W/m² 0,0 km/h (0 Bft) 95,74 %
27.02.2026 01:30 10,9 °C 9,4 °C 5,6 °C 89 % 1018,9 hPa 0,0 l/m² 0 min 2 min 0 W/m² 0,0 km/h (0 Bft) 93,62 %
27.02.2026 01:32 10,9 °C 9,4 °C 5,6 °C 89 % 1018,9 hPa 0,0 l/m² 0 min 2 min 0 W/m² 3,2 km/h (1 Bft) 97,87 %
27.02.2026 01:34 10,8 °C 9,4 °C 5,6 °C 89 % 1018,9 hPa 0,0 l/m² 0 min 2 min 0 W/m² 3,2 km/h (1 Bft) 97,83 %
27.02.2026 01:36 10,8 °C 9,4 °C 5,6 °C 89 % 1018,9 hPa 0,0 l/m² 0 min 2 min 0 W/m² 3,2 km/h (1 Bft) 95,74 %
27.02.2026 01:38 10,8 °C 9,4 °C 5,6 °C 90 % 1018,9 hPa 0,0 l/m² 0 min 2 min 0 W/m² 3,2 km/h (1 Bft) 95,74 %
27.02.2026 01:40 10,8 °C 9,4 °C 5,6 °C 90 % 1018,8 hPa 0,0 l/m² 0 min 2 min 0 W/m² 6,4 km/h (2 Bft) 100,00 %
27.02.2026 01:42 10,8 °C 9,4 °C 5,6 °C 90 % 1018,9 hPa 0,0 l/m² 0 min 2 min 0 W/m² 6,4 km/h (2 Bft) 100,00 %
27.02.2026 01:44 10,8 °C 9,4 °C 5,6 °C 90 % 1018,8 hPa 0,0 l/m² 0 min 2 min 0 W/m² 3,2 km/h (1 Bft) 100,00 %
27.02.2026 01:46 10,8 °C 9,4 °C 6,1 °C 90 % 1018,8 hPa 0,0 l/m² 0 min 2 min 0 W/m² 6,4 km/h (2 Bft) 95,74 %
27.02.2026 01:48 10,8 °C 10,0 °C 6,1 °C 90 % 1018,8 hPa 0,0 l/m² 0 min 2 min 0 W/m² 6,4 km/h (2 Bft) 100,00 %
27.02.2026 01:50 10,8 °C 10,0 °C 6,1 °C 90 % 1018,7 hPa 0,0 l/m² 0 min 2 min 0 W/m² 6,4 km/h (2 Bft) 100,00 %
27.02.2026 01:52 10,8 °C 10,0 °C 6,1 °C 90 % 1018,8 hPa 0,0 l/m² 0 min 2 min 0 W/m² 12,9 km/h (3 Bft) 100,00 %
27.02.2026 01:54 10,8 °C 10,0 °C 6,1 °C 90 % 1018,7 hPa 0,0 l/m² 0 min 2 min 0 W/m² 9,7 km/h (2 Bft) 97,87 %
27.02.2026 01:56 10,8 °C 10,0 °C 6,1 °C 91 % 1018,7 hPa 0,0 l/m² 0 min 2 min 0 W/m² 9,7 km/h (2 Bft) 97,87 %
27.02.2026 01:58 10,9 °C 10,0 °C 6,1 °C 91 % 1018,8 hPa 0,0 l/m² 0 min 2 min 0 W/m² 9,7 km/h (2 Bft) 100,00 %
27.02.2026 02:00 10,9 °C 10,6 °C 6,7 °C 91 % 1018,7 hPa 0,0 l/m² 0 min 2 min 0 W/m² 12,9 km/h (3 Bft) 100,00 %
27.02.2026 02:02 10,9 °C 10,6 °C 6,7 °C 91 % 1018,7 hPa 0,0 l/m² 0 min 2 min 0 W/m² 6,4 km/h (2 Bft) 100,00 %
27.02.2026 02:04 11,0 °C 10,6 °C 6,7 °C 91 % 1018,7 hPa 0,0 l/m² 0 min 2 min 0 W/m² 16,1 km/h (3 Bft) 100,00 %
27.02.2026 02:06 11,0 °C 10,6 °C 6,7 °C 91 % 1018,8 hPa 0,0 l/m² 0 min 2 min 0 W/m² 6,4 km/h (2 Bft) 100,00 %
27.02.2026 02:08 11,1 °C 10,6 °C 6,7 °C 91 % 1018,7 hPa 0,0 l/m² 0 min 2 min 0 W/m² 12,9 km/h (3 Bft) 100,00 %
27.02.2026 02:10 11,1 °C 10,6 °C 6,7 °C 91 % 1018,7 hPa 0,0 l/m² 0 min 2 min 0 W/m² 6,4 km/h (2 Bft) 100,00 %
27.02.2026 02:12 11,1 °C 10,6 °C 6,7 °C 91 % 1018,7 hPa 0,0 l/m² 0 min 2 min 0 W/m² 12,9 km/h (3 Bft) 97,87 %
27.02.2026 02:14 11,1 °C 10,6 °C 6,7 °C 91 % 1018,7 hPa 0,0 l/m² 0 min 2 min 0 W/m² 6,4 km/h (2 Bft) 100,00 %
27.02.2026 02:16 11,1 °C 10,6 °C 6,7 °C 91 % 1018,7 hPa 0,0 l/m² 0 min 2 min 0 W/m² 9,7 km/h (2 Bft) 100,00 %
27.02.2026 02:18 11,1 °C 10,6 °C 6,7 °C 91 % 1018,6 hPa 0,0 l/m² 0 min 2 min 0 W/m² 9,7 km/h (2 Bft) 100,00 %
27.02.2026 02:20 11,1 °C 10,6 °C 6,7 °C 90 % 1018,6 hPa 0,0 l/m² 0 min 2 min 0 W/m² 9,7 km/h (2 Bft) 100,00 %
27.02.2026 02:22 11,1 °C 10,6 °C 6,7 °C 90 % 1018,6 hPa 0,0 l/m² 0 min 2 min 0 W/m² 9,7 km/h (2 Bft) 100,00 %
27.02.2026 02:24 11,1 °C 10,6 °C 6,7 °C 90 % 1018,6 hPa 0,0 l/m² 0 min 2 min 0 W/m² 12,9 km/h (3 Bft) 100,00 %
27.02.2026 02:26 11,2 °C 10,6 °C 6,7 °C 90 % 1018,6 hPa 0,0 l/m² 0 min 2 min 0 W/m² 12,9 km/h (3 Bft) 100,00 %
27.02.2026 02:28 11,2 °C 10,6 °C 6,7 °C 90 % 1018,5 hPa 0,0 l/m² 0 min 2 min 0 W/m² 12,9 km/h (3 Bft) 100,00 %
27.02.2026 02:30 11,2 °C 10,6 °C 6,7 °C 90 % 1018,5 hPa 0,0 l/m² 0 min 2 min 0 W/m² 9,7 km/h (2 Bft) 100,00 %
27.02.2026 02:32 11,2 °C 10,6 °C 6,7 °C 90 % 1018,5 hPa 0,0 l/m² 0 min 2 min 0 W/m² 9,7 km/h (2 Bft) 97,83 %
27.02.2026 02:34 11,2 °C 10,6 °C 6,7 °C 90 % 1018,5 hPa 0,0 l/m² 0 min 2 min 0 W/m² 9,7 km/h (2 Bft) 100,00 %
27.02.2026 02:36 11,2 °C 10,6 °C 6,7 °C 90 % 1018,5 hPa 0,0 l/m² 0 min 2 min 0 W/m² 6,4 km/h (2 Bft) 100,00 %
27.02.2026 02:38 11,2 °C 10,6 °C 6,7 °C 90 % 1018,5 hPa 0,0 l/m² 0 min 2 min 0 W/m² 9,7 km/h (2 Bft) 97,87 %
27.02.2026 02:40 11,2 °C 10,6 °C 6,7 °C 90 % 1018,5 hPa 0,0 l/m² 0 min 2 min 0 W/m² 12,9 km/h (3 Bft) 97,87 %
27.02.2026 02:42 11,2 °C 10,6 °C 6,7 °C 90 % 1018,5 hPa 0,0 l/m² 0 min 2 min 0 W/m² 9,7 km/h (2 Bft) 97,87 %
27.02.2026 02:44 11,2 °C 10,6 °C 6,7 °C 90 % 1018,5 hPa 0,0 l/m² 0 min 2 min 0 W/m² 9,7 km/h (2 Bft) 97,83 %
27.02.2026 02:46 11,2 °C 10,6 °C 6,7 °C 90 % 1018,4 hPa 0,0 l/m² 0 min 2 min 0 W/m² 6,4 km/h (2 Bft) 95,74 %
27.02.2026 02:48 11,2 °C 10,0 °C 6,7 °C 90 % 1018,5 hPa 0,0 l/m² 0 min 2 min 0 W/m² 9,7 km/h (2 Bft) 97,87 %
27.02.2026 02:50 11,2 °C 10,0 °C 6,7 °C 90 % 1018,4 hPa 0,0 l/m² 0 min 2 min 0 W/m² 6,4 km/h (2 Bft) 93,62 %
27.02.2026 02:52 11,2 °C 10,0 °C 6,1 °C 90 % 1018,4 hPa 0,0 l/m² 0 min 2 min 0 W/m² 9,7 km/h (2 Bft) 95,74 %
27.02.2026 02:54 11,2 °C 10,0 °C 6,1 °C 89 % 1018,4 hPa 0,0 l/m² 0 min 2 min 0 W/m² 6,4 km/h (2 Bft) 95,74 %
27.02.2026 02:56 11,2 °C 10,0 °C 6,1 °C 89 % 1018,4 hPa 0,0 l/m² 0 min 2 min 0 W/m² 6,4 km/h (2 Bft) 95,65 %
27.02.2026 02:58 11,2 °C 10,0 °C 6,1 °C 89 % 1018,4 hPa 0,0 l/m² 0 min 2 min 0 W/m² 6,4 km/h (2 Bft) 95,35 %
27.02.2026 03:00 11,2 °C 10,0 °C 6,1 °C 89 % 1018,4 hPa 0,0 l/m² 0 min 2 min 0 W/m² 3,2 km/h (1 Bft) 93,48 %
27.02.2026 03:02 11,2 °C 10,0 °C 6,1 °C 89 % 1018,3 hPa 0,0 l/m² 0 min 2 min 0 W/m² 6,4 km/h (2 Bft) 95,74 %
27.02.2026 03:04 11,1 °C 10,0 °C 6,1 °C 89 % 1018,3 hPa 0,0 l/m² 0 min 2 min 0 W/m² 3,2 km/h (1 Bft) 95,92 %
27.02.2026 03:06 11,1 °C 10,0 °C 6,1 °C 89 % 1018,3 hPa 0,0 l/m² 0 min 2 min 0 W/m² 12,9 km/h (3 Bft) 95,74 %
27.02.2026 03:08 11,1 °C 10,0 °C 6,1 °C 89 % 1018,3 hPa 0,0 l/m² 0 min 2 min 0 W/m² 9,7 km/h (2 Bft) 95,74 %
27.02.2026 03:10 11,1 °C 10,0 °C 6,1 °C 89 % 1018,3 hPa 0,0 l/m² 0 min 2 min 0 W/m² 6,4 km/h (2 Bft) 95,65 %
27.02.2026 03:12 11,1 °C 10,0 °C 6,1 °C 90 % 1018,3 hPa 0,0 l/m² 0 min 2 min 0 W/m² 16,1 km/h (3 Bft) 95,74 %
27.02.2026 03:14 11,1 °C 10,0 °C 6,1 °C 90 % 1018,3 hPa 0,0 l/m² 0 min 2 min 0 W/m² 16,1 km/h (3 Bft) 93,62 %
27.02.2026 03:16 11,1 °C 10,6 °C 6,7 °C 90 % 1018,3 hPa 0,0 l/m² 0 min 2 min 0 W/m² 16,1 km/h (3 Bft) 95,74 %
27.02.2026 03:18 11,2 °C 10,6 °C 6,1 °C 90 % 1018,2 hPa 0,0 l/m² 0 min 2 min 0 W/m² 9,7 km/h (2 Bft) 93,62 %
27.02.2026 03:20 11,2 °C 10,6 °C 6,7 °C 90 % 1018,3 hPa 0,0 l/m² 0 min 2 min 0 W/m² 12,9 km/h (3 Bft) 95,74 %
27.02.2026 03:22 11,2 °C 10,6 °C 6,7 °C 90 % 1018,2 hPa 0,0 l/m² 0 min 2 min 0 W/m² 12,9 km/h (3 Bft) 97,83 %
27.02.2026 03:24 11,2 °C 10,6 °C 6,7 °C 90 % 1018,2 hPa 0,0 l/m² 0 min 2 min 0 W/m² 16,1 km/h (3 Bft) 100,00 %
27.02.2026 03:26 11,2 °C 10,6 °C 6,7 °C 90 % 1018,2 hPa 0,0 l/m² 0 min 2 min 0 W/m² 12,9 km/h (3 Bft) 100,00 %
27.02.2026 03:28 11,2 °C 10,6 °C 6,7 °C 90 % 1018,2 hPa 0,0 l/m² 0 min 2 min 0 W/m² 12,9 km/h (3 Bft) 100,00 %
27.02.2026 03:30 11,2 °C 10,6 °C 6,7 °C 90 % 1018,2 hPa 0,0 l/m² 0 min 2 min 0 W/m² 16,1 km/h (3 Bft) 97,87 %
27.02.2026 03:32 11,2 °C 10,6 °C 6,7 °C 90 % 1018,2 hPa 0,0 l/m² 0 min 2 min 0 W/m² 9,7 km/h (2 Bft) 97,87 %
27.02.2026 03:34 11,2 °C 10,6 °C 6,7 °C 89 % 1018,1 hPa 0,0 l/m² 0 min 2 min 0 W/m² 6,4 km/h (2 Bft) 100,00 %
27.02.2026 03:36 11,2 °C 10,6 °C 6,7 °C 89 % 1018,2 hPa 0,0 l/m² 0 min 2 min 0 W/m² 12,9 km/h (3 Bft) 95,74 %
27.02.2026 03:38 11,2 °C 10,0 °C 6,7 °C 89 % 1018,2 hPa 0,0 l/m² 0 min 2 min 0 W/m² 9,7 km/h (2 Bft) 100,00 %
27.02.2026 03:40 11,2 °C 10,0 °C 6,7 °C 89 % 1018,2 hPa 0,0 l/m² 0 min 2 min 0 W/m² 9,7 km/h (2 Bft) 95,74 %
27.02.2026 03:42 11,2 °C 10,0 °C 6,1 °C 89 % 1018,1 hPa 0,0 l/m² 0 min 2 min 0 W/m² 3,2 km/h (1 Bft) 100,00 %
27.02.2026 03:44 11,2 °C 10,0 °C 6,1 °C 89 % 1018,1 hPa 0,0 l/m² 0 min 2 min 0 W/m² 3,2 km/h (1 Bft) 97,87 %
27.02.2026 03:46 11,2 °C 10,0 °C 6,1 °C 89 % 1018,1 hPa 0,0 l/m² 0 min 2 min 0 W/m² 6,4 km/h (2 Bft) 100,00 %
27.02.2026 03:48 11,2 °C 10,0 °C 6,1 °C 89 % 1018,1 hPa 0,0 l/m² 0 min 2 min 0 W/m² 9,7 km/h (2 Bft) 97,87 %
27.02.2026 03:50 11,1 °C 10,0 °C 6,1 °C 89 % 1018,1 hPa 0,0 l/m² 0 min 2 min 0 W/m² 3,2 km/h (1 Bft) 95,74 %
27.02.2026 03:52 11,1 °C 10,0 °C 6,1 °C 89 % 1018,0 hPa 0,0 l/m² 0 min 2 min 0 W/m² 3,2 km/h (1 Bft) 97,87 %
27.02.2026 03:54 11,1 °C 10,0 °C 6,1 °C 89 % 1018,0 hPa 0,0 l/m² 0 min 2 min 0 W/m² 6,4 km/h (2 Bft) 97,96 %
27.02.2026 03:56 11,1 °C 10,0 °C 6,1 °C 89 % 1018,1 hPa 0,0 l/m² 0 min 2 min 0 W/m² 3,2 km/h (1 Bft) 97,87 %
27.02.2026 03:58 11,1 °C 10,0 °C 6,1 °C 89 % 1018,0 hPa 0,0 l/m² 0 min 2 min 0 W/m² 6,4 km/h (2 Bft) 97,87 %
27.02.2026 04:00 11,0 °C 10,0 °C 6,1 °C 89 % 1018,1 hPa 0,0 l/m² 0 min 2 min 0 W/m² 6,4 km/h (2 Bft) 95,74 %
27.02.2026 04:02 11,0 °C 9,4 °C 6,1 °C 89 % 1018,0 hPa 0,0 l/m² 0 min 2 min 0 W/m² 6,4 km/h (2 Bft) 100,00 %
27.02.2026 04:04 10,9 °C 9,4 °C 6,1 °C 89 % 1018,0 hPa 0,0 l/m² 0 min 2 min 0 W/m² 6,4 km/h (2 Bft) 95,35 %
27.02.2026 04:06 10,9 °C 9,4 °C 6,1 °C 89 % 1018,0 hPa 0,0 l/m² 0 min 2 min 0 W/m² 3,2 km/h (1 Bft) 97,87 %
27.02.2026 04:08 10,9 °C 9,4 °C 5,6 °C 89 % 1018,0 hPa 0,0 l/m² 0 min 2 min 0 W/m² 3,2 km/h (1 Bft) 89,36 %
27.02.2026 04:10 10,9 °C 9,4 °C 5,6 °C 89 % 1017,9 hPa 0,0 l/m² 0 min 2 min 0 W/m² 3,2 km/h (1 Bft) 97,83 %
27.02.2026 04:12 10,9 °C 9,4 °C 5,6 °C 89 % 1017,9 hPa 0,0 l/m² 0 min 2 min 0 W/m² 3,2 km/h (1 Bft) 97,87 %
27.02.2026 04:14 10,8 °C 9,4 °C 5,6 °C 89 % 1017,9 hPa 0,0 l/m² 0 min 2 min 0 W/m² 3,2 km/h (1 Bft) 97,87 %
27.02.2026 04:16 10,8 °C 8,9 °C 5,6 °C 89 % 1017,9 hPa 0,0 l/m² 0 min 2 min 0 W/m² 3,2 km/h (1 Bft) 97,87 %
27.02.2026 04:18 10,8 °C 8,9 °C 5,6 °C 89 % 1017,9 hPa 0,0 l/m² 0 min 2 min 0 W/m² 6,4 km/h (2 Bft) 95,74 %
27.02.2026 04:20 10,7 °C 8,9 °C 5,6 °C 89 % 1017,9 hPa 0,0 l/m² 0 min 2 min 0 W/m² 6,4 km/h (2 Bft) 97,83 %
27.02.2026 04:22 10,7 °C 8,9 °C 5,6 °C 89 % 1017,9 hPa 0,0 l/m² 0 min 2 min 0 W/m² 6,4 km/h (2 Bft) 97,87 %
27.02.2026 04:24 10,6 °C 8,9 °C 5,6 °C 89 % 1017,8 hPa 0,0 l/m² 0 min 2 min 0 W/m² 6,4 km/h (2 Bft) 95,74 %
27.02.2026 04:26 10,6 °C 8,9 °C 5,6 °C 89 % 1017,9 hPa 0,0 l/m² 0 min 2 min 0 W/m² 6,4 km/h (2 Bft) 95,74 %
27.02.2026 04:28 10,6 °C 8,9 °C 5,6 °C 89 % 1017,8 hPa 0,0 l/m² 0 min 2 min 0 W/m² 6,4 km/h (2 Bft) 97,87 %
27.02.2026 04:30 10,5 °C 8,9 °C 5,6 °C 89 % 1017,8 hPa 0,0 l/m² 0 min 2 min 0 W/m² 3,2 km/h (1 Bft) 97,87 %
27.02.2026 04:32 10,4 °C 8,9 °C 5,6 °C 89 % 1017,8 hPa 0,0 l/m² 0 min 2 min 0 W/m² 3,2 km/h (1 Bft) 93,48 %
27.02.2026 04:34 10,4 °C 8,9 °C 5,6 °C 89 % 1017,8 hPa 0,0 l/m² 0 min 2 min 0 W/m² 0,0 km/h (0 Bft) 97,87 %
27.02.2026 04:36 10,4 °C 8,9 °C 5,6 °C 89 % 1017,8 hPa 0,0 l/m² 0 min 2 min 0 W/m² 0,0 km/h (0 Bft) 95,74 %
27.02.2026 04:38 10,3 °C 8,9 °C 5,0 °C 89 % 1017,7 hPa 0,0 l/m² 0 min 2 min 0 W/m² 0,0 km/h (0 Bft) 95,74 %
27.02.2026 04:40 10,3 °C 8,9 °C 5,0 °C 90 % 1017,7 hPa 0,0 l/m² 0 min 2 min 0 W/m² 6,4 km/h (2 Bft) 97,87 %
27.02.2026 04:42 10,3 °C 8,9 °C 5,0 °C 90 % 1017,7 hPa 0,0 l/m² 0 min 2 min 0 W/m² 6,4 km/h (2 Bft) 97,87 %
27.02.2026 04:44 10,2 °C 8,9 °C 5,0 °C 90 % 1017,7 hPa 0,0 l/m² 0 min 2 min 0 W/m² 3,2 km/h (1 Bft) 97,83 %
27.02.2026 04:46 10,2 °C 8,9 °C 5,0 °C 90 % 1017,7 hPa 0,0 l/m² 0 min 2 min 0 W/m² 6,4 km/h (2 Bft) 95,74 %
27.02.2026 04:48 10,2 °C 8,9 °C 5,0 °C 90 % 1017,7 hPa 0,0 l/m² 0 min 2 min 0 W/m² 6,4 km/h (2 Bft) 97,87 %
27.02.2026 04:50 10,2 °C 8,9 °C 5,0 °C 90 % 1017,7 hPa 0,0 l/m² 0 min 2 min 0 W/m² 9,7 km/h (2 Bft) 97,87 %
27.02.2026 04:52 10,1 °C 8,9 °C 5,0 °C 90 % 1017,7 hPa 0,0 l/m² 0 min 2 min 0 W/m² 6,4 km/h (2 Bft) 97,87 %
27.02.2026 04:54 10,1 °C 8,9 °C 5,0 °C 90 % 1017,7 hPa 0,0 l/m² 0 min 2 min 0 W/m² 3,2 km/h (1 Bft) 98,00 %
27.02.2026 04:56 10,1 °C 8,9 °C 5,0 °C 90 % 1017,8 hPa 0,0 l/m² 0 min 2 min 0 W/m² 12,9 km/h (3 Bft) 97,83 %
27.02.2026 04:58 10,1 °C 8,9 °C 5,0 °C 90 % 1017,7 hPa 0,0 l/m² 0 min 2 min 0 W/m² 12,9 km/h (3 Bft) 95,92 %
27.02.2026 05:00 10,0 °C 8,9 °C 5,0 °C 90 % 1017,7 hPa 0,0 l/m² 0 min 2 min 0 W/m² 6,4 km/h (2 Bft) 95,74 %
27.02.2026 05:02 10,0 °C 8,9 °C 5,0 °C 90 % 1017,7 hPa 0,0 l/m² 0 min 2 min 0 W/m² 6,4 km/h (2 Bft) 95,74 %
27.02.2026 05:04 9,9 °C 8,9 °C 5,0 °C 90 % 1017,7 hPa 0,0 l/m² 0 min 2 min 0 W/m² 9,7 km/h (2 Bft) 100,00 %
27.02.2026 05:06 9,9 °C 8,3 °C 5,0 °C 90 % 1017,7 hPa 0,0 l/m² 0 min 2 min 0 W/m² 6,4 km/h (2 Bft) 94,23 %
27.02.2026 05:08 9,9 °C 8,9 °C 5,0 °C 91 % 1017,7 hPa 0,0 l/m² 0 min 2 min 0 W/m² 12,9 km/h (3 Bft) 95,12 %
27.02.2026 05:10 9,8 °C 8,9 °C 5,0 °C 91 % 1017,7 hPa 0,0 l/m² 0 min 2 min 0 W/m² 6,4 km/h (2 Bft) 95,74 %
27.02.2026 05:12 9,8 °C 8,3 °C 5,0 °C 91 % 1017,7 hPa 0,0 l/m² 0 min 2 min 0 W/m² 6,4 km/h (2 Bft) 95,74 %
27.02.2026 05:14 9,8 °C 8,9 °C 5,0 °C 91 % 1017,6 hPa 0,0 l/m² 0 min 2 min 0 W/m² 9,7 km/h (2 Bft) 98,08 %
27.02.2026 05:16 9,8 °C 8,9 °C 5,0 °C 91 % 1017,6 hPa 0,0 l/m² 0 min 2 min 0 W/m² 6,4 km/h (2 Bft) 95,74 %
27.02.2026 05:18 9,8 °C 8,9 °C 5,0 °C 91 % 1017,6 hPa 0,0 l/m² 0 min 2 min 0 W/m² 12,9 km/h (3 Bft) 97,83 %
27.02.2026 05:20 9,8 °C 8,9 °C 5,0 °C 91 % 1017,5 hPa 0,0 l/m² 0 min 2 min 0 W/m² 12,9 km/h (3 Bft) 97,87 %
27.02.2026 05:22 9,8 °C 8,9 °C 5,0 °C 91 % 1017,5 hPa 0,0 l/m² 0 min 2 min 0 W/m² 16,1 km/h (3 Bft) 97,87 %
27.02.2026 05:24 9,8 °C 8,9 °C 5,6 °C 91 % 1017,5 hPa 0,0 l/m² 0 min 2 min 0 W/m² 16,1 km/h (3 Bft) 95,74 %
27.02.2026 05:26 9,8 °C 8,9 °C 5,6 °C 91 % 1017,5 hPa 0,0 l/m² 0 min 2 min 0 W/m² 12,9 km/h (3 Bft) 95,74 %
27.02.2026 05:28 9,7 °C 8,9 °C 5,6 °C 92 % 1017,5 hPa 0,0 l/m² 0 min 2 min 0 W/m² 12,9 km/h (3 Bft) 97,87 %
27.02.2026 05:30 9,7 °C 8,9 °C 5,6 °C 92 % 1017,5 hPa 0,0 l/m² 0 min 2 min 0 W/m² 9,7 km/h (2 Bft) 97,83 %
27.02.2026 05:32 9,7 °C 8,9 °C 5,0 °C 92 % 1017,5 hPa 0,0 l/m² 0 min 2 min 0 W/m² 6,4 km/h (2 Bft) 97,87 %
27.02.2026 05:34 9,7 °C 8,9 °C 5,0 °C 92 % 1017,4 hPa 0,0 l/m² 0 min 2 min 0 W/m² 6,4 km/h (2 Bft) 97,87 %
27.02.2026 05:36 9,7 °C 8,9 °C 5,0 °C 92 % 1017,4 hPa 0,0 l/m² 0 min 2 min 0 W/m² 12,9 km/h (3 Bft) 97,87 %
27.02.2026 05:38 9,7 °C 8,9 °C 5,0 °C 92 % 1017,4 hPa 0,0 l/m² 0 min 2 min 0 W/m² 6,4 km/h (2 Bft) 97,87 %
27.02.2026 05:40 9,7 °C 8,9 °C 5,0 °C 92 % 1017,4 hPa 0,0 l/m² 0 min 2 min 0 W/m² 16,1 km/h (3 Bft) 97,87 %
27.02.2026 05:42 9,7 °C 8,9 °C 5,6 °C 92 % 1017,4 hPa 0,0 l/m² 0 min 2 min 0 W/m² 6,4 km/h (2 Bft) 97,83 %
27.02.2026 05:44 9,7 °C 8,9 °C 5,6 °C 92 % 1017,4 hPa 0,0 l/m² 0 min 2 min 0 W/m² 6,4 km/h (2 Bft) 97,87 %
27.02.2026 05:46 9,7 °C 8,9 °C 5,6 °C 92 % 1017,4 hPa 0,0 l/m² 0 min 2 min 0 W/m² 12,9 km/h (3 Bft) 97,87 %
27.02.2026 05:48 9,7 °C 8,9 °C 5,6 °C 92 % 1017,3 hPa 0,0 l/m² 0 min 2 min 0 W/m² 12,9 km/h (3 Bft) 100,00 %
27.02.2026 05:50 9,7 °C 8,9 °C 5,6 °C 92 % 1017,3 hPa 0,0 l/m² 0 min 2 min 0 W/m² 6,4 km/h (2 Bft) 100,00 %
27.02.2026 05:52 9,7 °C 8,9 °C 5,6 °C 92 % 1017,3 hPa 0,0 l/m² 0 min 2 min 0 W/m² 12,9 km/h (3 Bft) 97,87 %
27.02.2026 05:54 9,7 °C 8,9 °C 5,0 °C 92 % 1017,3 hPa 0,0 l/m² 0 min 2 min 0 W/m² 12,9 km/h (3 Bft) 97,87 %
27.02.2026 05:56 9,7 °C 8,9 °C 5,0 °C 92 % 1017,3 hPa 0,0 l/m² 0 min 2 min 0 W/m² 6,4 km/h (2 Bft) 100,00 %
27.02.2026 05:58 9,7 °C 8,9 °C 5,0 °C 92 % 1017,3 hPa 0,0 l/m² 0 min 2 min 0 W/m² 12,9 km/h (3 Bft) 97,87 %
27.02.2026 06:00 9,7 °C 8,9 °C 5,0 °C 92 % 1017,3 hPa 0,0 l/m² 0 min 2 min 0 W/m² 16,1 km/h (3 Bft) 100,00 %
27.02.2026 06:02 9,7 °C 8,9 °C 5,0 °C 92 % 1017,3 hPa 0,0 l/m² 0 min 2 min 0 W/m² 12,9 km/h (3 Bft) 97,83 %
27.02.2026 06:04 9,6 °C 8,9 °C 5,0 °C 92 % 1017,3 hPa 0,0 l/m² 0 min 2 min 0 W/m² 6,4 km/h (2 Bft) 97,83 %
27.02.2026 06:07 9,6 °C 8,3 °C 5,0 °C 92 % 1017,3 hPa 0,0 l/m² 0 min 3 min 0 W/m² 9,7 km/h (2 Bft) 100,00 %
27.02.2026 06:08 9,6 °C 8,9 °C 5,0 °C 92 % 1017,3 hPa 0,0 l/m² 0 min 1 min 0 W/m² 12,9 km/h (3 Bft) 100,00 %
27.02.2026 06:10 9,6 °C 8,9 °C 5,0 °C 92 % 1017,3 hPa 0,0 l/m² 0 min 2 min 0 W/m² 16,1 km/h (3 Bft) 97,29 %
27.02.2026 06:12 9,6 °C 8,9 °C 5,0 °C 92 % 1017,3 hPa 0,0 l/m² 0 min 2 min 0 W/m² 12,9 km/h (3 Bft) 100,00 %
27.02.2026 06:14 9,6 °C 8,9 °C 5,0 °C 92 % 1017,3 hPa 0,0 l/m² 0 min 2 min 0 W/m² 16,1 km/h (3 Bft) 100,00 %
27.02.2026 06:16 9,6 °C 8,3 °C 5,0 °C 92 % 1017,3 hPa 0,0 l/m² 0 min 2 min 0 W/m² 12,9 km/h (3 Bft) 100,00 %
27.02.2026 06:18 9,6 °C 8,3 °C 5,0 °C 92 % 1017,2 hPa 0,0 l/m² 0 min 2 min 0 W/m² 12,9 km/h (3 Bft) 96,36 %
27.02.2026 06:20 9,6 °C 8,3 °C 5,0 °C 92 % 1017,2 hPa 0,0 l/m² 0 min 2 min 0 W/m² 6,4 km/h (2 Bft) 100,00 %
27.02.2026 06:22 9,5 °C 8,3 °C 5,0 °C 92 % 1017,2 hPa 0,0 l/m² 0 min 2 min 0 W/m² 6,4 km/h (2 Bft) 97,87 %
27.02.2026 06:24 9,5 °C 8,3 °C 5,0 °C 92 % 1017,2 hPa 0,0 l/m² 0 min 2 min 0 W/m² 9,7 km/h (2 Bft) 100,00 %
27.02.2026 06:26 9,5 °C 8,3 °C 5,0 °C 92 % 1017,2 hPa 0,0 l/m² 0 min 2 min 0 W/m² 6,4 km/h (2 Bft) 97,14 %
27.02.2026 06:28 9,4 °C 8,3 °C 5,0 °C 92 % 1017,3 hPa 0,0 l/m² 0 min 2 min 0 W/m² 6,4 km/h (2 Bft) 95,83 %
27.02.2026 06:30 9,4 °C 8,3 °C 5,0 °C 92 % 1017,3 hPa 0,0 l/m² 0 min 2 min 0 W/m² 16,1 km/h (3 Bft) 100,00 %
27.02.2026 06:32 9,4 °C 8,3 °C 5,0 °C 92 % 1017,2 hPa 0,0 l/m² 0 min 2 min 0 W/m² 12,9 km/h (3 Bft) 95,92 %
27.02.2026 06:34 9,3 °C 8,3 °C 5,0 °C 92 % 1017,2 hPa 0,0 l/m² 0 min 2 min 0 W/m² 9,7 km/h (2 Bft) 97,87 %
27.02.2026 06:36 9,3 °C 8,3 °C 5,0 °C 92 % 1017,2 hPa 0,0 l/m² 0 min 2 min 0 W/m² 12,9 km/h (3 Bft) 97,87 %
27.02.2026 06:38 9,3 °C 8,3 °C 4,4 °C 92 % 1017,2 hPa 0,0 l/m² 0 min 2 min 0 W/m² 12,9 km/h (3 Bft) 98,11 %
27.02.2026 06:40 9,3 °C 8,3 °C 4,4 °C 92 % 1017,2 hPa 0,0 l/m² 0 min 2 min 0 W/m² 9,7 km/h (2 Bft) 97,87 %
27.02.2026 06:42 9,3 °C 8,3 °C 4,4 °C 92 % 1017,1 hPa 0,0 l/m² 0 min 2 min 0 W/m² 12,9 km/h (3 Bft) 97,87 %
27.02.2026 06:44 9,3 °C 8,3 °C 4,4 °C 93 % 1017,1 hPa 0,0 l/m² 0 min 2 min 0 W/m² 16,1 km/h (3 Bft) 97,37 %
27.02.2026 06:46 9,2 °C 8,3 °C 5,0 °C 92 % 1017,1 hPa 0,0 l/m² 0 min 2 min 0 W/m² 19,3 km/h (3 Bft) 97,96 %
27.02.2026 06:48 9,2 °C 8,3 °C 5,0 °C 92 % 1017,2 hPa 0,0 l/m² 0 min 2 min 0 W/m² 12,9 km/h (3 Bft) 97,87 %
27.02.2026 06:50 9,2 °C 8,3 °C 5,0 °C 93 % 1017,1 hPa 0,0 l/m² 0 min 2 min 0 W/m² 16,1 km/h (3 Bft) 96,23 %
27.02.2026 06:52 9,2 °C 8,3 °C 5,0 °C 93 % 1017,1 hPa 0,0 l/m² 0 min 2 min 0 W/m² 16,1 km/h (3 Bft) 95,74 %
27.02.2026 06:54 9,2 °C 8,3 °C 5,0 °C 93 % 1017,1 hPa 0,0 l/m² 0 min 2 min 0 W/m² 12,9 km/h (3 Bft) 94,74 %
27.02.2026 06:56 9,2 °C 8,3 °C 5,0 °C 93 % 1017,1 hPa 0,0 l/m² 0 min 2 min 0 W/m² 12,9 km/h (3 Bft) 95,74 %
27.02.2026 06:58 9,2 °C 8,3 °C 5,0 °C 93 % 1017,1 hPa 0,0 l/m² 0 min 2 min 0 W/m² 12,9 km/h (3 Bft) 95,92 %
27.02.2026 07:00 9,2 °C 8,3 °C 5,0 °C 93 % 1017,1 hPa 0,0 l/m² 0 min 2 min 0 W/m² 9,7 km/h (2 Bft) 93,62 %
27.02.2026 07:02 9,2 °C 8,3 °C 5,0 °C 93 % 1017,1 hPa 0,0 l/m² 0 min 2 min 0 W/m² 9,7 km/h (2 Bft) 97,87 %
27.02.2026 07:04 9,2 °C 8,3 °C 5,0 °C 93 % 1017,2 hPa 0,0 l/m² 0 min 2 min 0 W/m² 12,9 km/h (3 Bft) 97,92 %
27.02.2026 07:06 9,2 °C 8,3 °C 5,0 °C 93 % 1017,1 hPa 0,0 l/m² 0 min 2 min 0 W/m² 12,9 km/h (3 Bft) 98,21 %
27.02.2026 07:08 9,2 °C 8,3 °C 5,0 °C 93 % 1017,1 hPa 0,0 l/m² 0 min 2 min 0 W/m² 9,7 km/h (2 Bft) 97,14 %
27.02.2026 07:10 9,2 °C 8,3 °C 5,0 °C 93 % 1017,1 hPa 0,0 l/m² 0 min 2 min 0 W/m² 9,7 km/h (2 Bft) 97,87 %
27.02.2026 07:12 9,2 °C 8,3 °C 4,4 °C 93 % 1017,1 hPa 0,0 l/m² 0 min 2 min 0 W/m² 6,4 km/h (2 Bft) 98,00 %
27.02.2026 07:14 9,2 °C 8,3 °C 4,4 °C 93 % 1017,1 hPa 0,0 l/m² 0 min 2 min 0 W/m² 12,9 km/h (3 Bft) 97,83 %
27.02.2026 07:16 9,1 °C 8,3 °C 4,4 °C 93 % 1017,1 hPa 0,0 l/m² 0 min 2 min 0 W/m² 9,7 km/h (2 Bft) 95,74 %
27.02.2026 07:18 9,1 °C 8,3 °C 4,4 °C 93 % 1017,2 hPa 0,0 l/m² 0 min 2 min 0 W/m² 12,9 km/h (3 Bft) 95,74 %
27.02.2026 07:20 9,1 °C 8,3 °C 4,4 °C 93 % 1017,1 hPa 0,0 l/m² 0 min 2 min 0 W/m² 12,9 km/h (3 Bft) 98,00 %
27.02.2026 07:22 9,1 °C 7,8 °C 4,4 °C 93 % 1017,1 hPa 0,0 l/m² 0 min 2 min 0 W/m² 12,9 km/h (3 Bft) 97,87 %
27.02.2026 07:24 9,1 °C 8,3 °C 4,4 °C 93 % 1017,1 hPa 0,0 l/m² 0 min 2 min 0 W/m² 12,9 km/h (3 Bft) 97,37 %
27.02.2026 07:26 9,1 °C 8,3 °C 4,4 °C 93 % 1017,0 hPa 0,0 l/m² 0 min 2 min 0 W/m² 12,9 km/h (3 Bft) 95,74 %
27.02.2026 07:28 9,1 °C 8,3 °C 4,4 °C 93 % 1017,1 hPa 0,0 l/m² 0 min 2 min 3 W/m² 16,1 km/h (3 Bft) 97,83 %
27.02.2026 07:30 9,1 °C 8,3 °C 4,4 °C 93 % 1017,1 hPa 0,0 l/m² 0 min 2 min 5 W/m² 16,1 km/h (3 Bft) 98,18 %
27.02.2026 07:32 9,1 °C 8,3 °C 4,4 °C 93 % 1017,0 hPa 0,0 l/m² 0 min 2 min 6 W/m² 16,1 km/h (3 Bft) 96,00 %
27.02.2026 07:34 9,1 °C 8,3 °C 4,4 °C 93 % 1017,0 hPa 0,0 l/m² 0 min 2 min 7 W/m² 12,9 km/h (3 Bft) 95,74 %
27.02.2026 07:36 9,0 °C 8,3 °C 4,4 °C 93 % 1017,0 hPa 0,0 l/m² 0 min 2 min 9 W/m² 12,9 km/h (3 Bft) 97,22 %
27.02.2026 07:38 9,0 °C 8,3 °C 4,4 °C 94 % 1017,0 hPa 0,0 l/m² 0 min 2 min 10 W/m² 12,9 km/h (3 Bft) 93,62 %
27.02.2026 07:40 9,0 °C 8,3 °C 4,4 °C 94 % 1016,9 hPa 0,0 l/m² 0 min 2 min 11 W/m² 12,9 km/h (3 Bft) 97,87 %
27.02.2026 07:42 9,0 °C 8,3 °C 4,4 °C 94 % 1016,9 hPa 0,0 l/m² 0 min 2 min 11 W/m² 16,1 km/h (3 Bft) 97,83 %
27.02.2026 07:44 9,0 °C 8,3 °C 4,4 °C 94 % 1016,9 hPa 0,0 l/m² 0 min 2 min 12 W/m² 12,9 km/h (3 Bft) 96,36 %
27.02.2026 07:46 9,0 °C 8,3 °C 4,4 °C 94 % 1016,9 hPa 0,0 l/m² 0 min 2 min 13 W/m² 16,1 km/h (3 Bft) 97,87 %
27.02.2026 07:48 9,0 °C 8,3 °C 4,4 °C 94 % 1016,9 hPa 0,0 l/m² 0 min 2 min 14 W/m² 12,9 km/h (3 Bft) 97,87 %
27.02.2026 07:50 9,0 °C 8,3 °C 4,4 °C 94 % 1016,8 hPa 0,0 l/m² 0 min 2 min 16 W/m² 19,3 km/h (3 Bft) 97,96 %
27.02.2026 07:52 9,0 °C 8,3 °C 5,0 °C 94 % 1016,8 hPa 0,0 l/m² 0 min 2 min 16 W/m² 12,9 km/h (3 Bft) 97,87 %
27.02.2026 07:54 9,0 °C 8,3 °C 5,0 °C 94 % 1016,9 hPa 0,0 l/m² 0 min 2 min 18 W/m² 12,9 km/h (3 Bft) 97,87 %
27.02.2026 07:56 9,1 °C 8,3 °C 5,0 °C 94 % 1016,9 hPa 0,0 l/m² 0 min 2 min 19 W/m² 19,3 km/h (3 Bft) 97,87 %
27.02.2026 07:58 9,1 °C 8,3 °C 5,0 °C 94 % 1016,8 hPa 0,0 l/m² 0 min 2 min 19 W/m² 12,9 km/h (3 Bft) 97,22 %
27.02.2026 08:00 9,1 °C 8,3 °C 5,0 °C 94 % 1016,8 hPa 0,0 l/m² 0 min 2 min 21 W/m² 16,1 km/h (3 Bft) 97,87 %
27.02.2026 08:02 9,1 °C 8,3 °C 5,0 °C 94 % 1016,7 hPa 0,0 l/m² 0 min 2 min 21 W/m² 16,1 km/h (3 Bft) 96,30 %
27.02.2026 08:04 9,1 °C 8,3 °C 5,0 °C 94 % 1016,7 hPa 0,0 l/m² 0 min 2 min 22 W/m² 9,7 km/h (2 Bft) 97,56 %
27.02.2026 08:06 9,1 °C 8,9 °C 5,0 °C 94 % 1016,7 hPa 0,0 l/m² 0 min 2 min 23 W/m² 22,5 km/h (4 Bft) 98,11 %
27.02.2026 08:08 9,1 °C 8,9 °C 5,0 °C 94 % 1016,7 hPa 0,0 l/m² 0 min 2 min 24 W/m² 16,1 km/h (3 Bft) 96,00 %
27.02.2026 08:10 9,2 °C 8,9 °C 5,0 °C 94 % 1016,7 hPa 0,0 l/m² 0 min 2 min 25 W/m² 16,1 km/h (3 Bft) 95,74 %
27.02.2026 08:12 9,2 °C 8,9 °C 5,0 °C 94 % 1016,6 hPa 0,0 l/m² 0 min 2 min 26 W/m² 16,1 km/h (3 Bft) 95,65 %
27.02.2026 08:14 9,2 °C 8,9 °C 5,0 °C 94 % 1016,7 hPa 0,0 l/m² 0 min 2 min 26 W/m² 19,3 km/h (3 Bft) 97,87 %
27.02.2026 08:16 9,2 °C 8,9 °C 5,0 °C 94 % 1016,6 hPa 0,0 l/m² 0 min 2 min 27 W/m² 16,1 km/h (3 Bft) 97,87 %
27.02.2026 08:18 9,3 °C 8,9 °C 5,0 °C 94 % 1016,6 hPa 0,0 l/m² 0 min 2 min 28 W/m² 19,3 km/h (3 Bft) 97,37 %
27.02.2026 08:20 9,3 °C 8,9 °C 5,0 °C 94 % 1016,6 hPa 0,0 l/m² 0 min 2 min 29 W/m² 16,1 km/h (3 Bft) 97,87 %
27.02.2026 08:22 9,3 °C 8,9 °C 5,0 °C 95 % 1016,6 hPa 0,0 l/m² 0 min 2 min 30 W/m² 12,9 km/h (3 Bft) 95,74 %
27.02.2026 08:24 9,3 °C 8,9 °C 5,0 °C 95 % 1016,6 hPa 0,0 l/m² 0 min 2 min 31 W/m² 19,3 km/h (3 Bft) 95,74 %
27.02.2026 08:26 9,4 °C 9,4 °C 5,6 °C 95 % 1016,6 hPa 0,0 l/m² 0 min 2 min 32 W/m² 19,3 km/h (3 Bft) 97,96 %
27.02.2026 08:28 9,4 °C 9,4 °C 5,6 °C 95 % 1016,6 hPa 0,0 l/m² 0 min 2 min 33 W/m² 19,3 km/h (3 Bft) 95,74 %
27.02.2026 08:30 9,4 °C 9,4 °C 5,6 °C 95 % 1016,6 hPa 0,0 l/m² 0 min 2 min 33 W/m² 19,3 km/h (3 Bft) 95,74 %
27.02.2026 08:32 9,5 °C 9,4 °C 5,6 °C 94 % 1016,6 hPa 0,0 l/m² 0 min 2 min 33 W/m² 16,1 km/h (3 Bft) 96,00 %
27.02.2026 08:34 9,6 °C 9,4 °C 5,6 °C 95 % 1016,5 hPa 0,0 l/m² 0 min 2 min 35 W/m² 19,3 km/h (3 Bft) 97,96 %
27.02.2026 08:36 9,6 °C 9,4 °C 5,6 °C 95 % 1016,6 hPa 0,0 l/m² 0 min 2 min 36 W/m² 19,3 km/h (3 Bft) 95,74 %
27.02.2026 08:38 9,7 °C 9,4 °C 5,6 °C 95 % 1016,6 hPa 0,0 l/m² 0 min 2 min 37 W/m² 19,3 km/h (3 Bft) 97,37 %
27.02.2026 08:40 9,8 °C 10,0 °C 5,6 °C 95 % 1016,6 hPa 0,0 l/m² 0 min 2 min 38 W/m² 25,7 km/h (4 Bft) 95,74 %
27.02.2026 08:42 9,8 °C 10,0 °C 6,1 °C 95 % 1016,6 hPa 0,0 l/m² 0 min 2 min 39 W/m² 16,1 km/h (3 Bft) 98,00 %
27.02.2026 08:44 9,8 °C 10,0 °C 6,1 °C 95 % 1016,6 hPa 0,0 l/m² 0 min 2 min 40 W/m² 19,3 km/h (3 Bft) 97,87 %
27.02.2026 08:46 9,9 °C 10,0 °C 6,1 °C 94 % 1016,6 hPa 0,0 l/m² 0 min 2 min 40 W/m² 22,5 km/h (4 Bft) 95,74 %
27.02.2026 08:48 9,9 °C 10,0 °C 6,1 °C 94 % 1016,5 hPa 0,0 l/m² 0 min 2 min 55 W/m² 19,3 km/h (3 Bft) 97,87 %
27.02.2026 08:50 10,0 °C 10,0 °C 6,1 °C 94 % 1016,6 hPa 0,0 l/m² 0 min 2 min 95 W/m² 19,3 km/h (3 Bft) 97,83 %
27.02.2026 08:52 10,1 °C 10,0 °C 6,1 °C 95 % 1016,5 hPa 0,0 l/m² 0 min 2 min 102 W/m² 16,1 km/h (3 Bft) 97,87 %
27.02.2026 08:54 10,1 °C 10,6 °C 6,1 °C 94 % 1016,5 hPa 0,0 l/m² 0 min 2 min 106 W/m² 19,3 km/h (3 Bft) 97,87 %
27.02.2026 08:56 10,2 °C 11,1 °C 6,1 °C 94 % 1016,5 hPa 0,0 l/m² 0 min 2 min 77 W/m² 12,9 km/h (3 Bft) 100,00 %
27.02.2026 08:58 10,3 °C 11,7 °C 6,1 °C 94 % 1016,4 hPa 0,0 l/m² 0 min 2 min 80 W/m² 19,3 km/h (3 Bft) 97,73 %
27.02.2026 09:00 10,3 °C 12,2 °C 6,1 °C 94 % 1016,5 hPa 0,0 l/m² 0 min 2 min 104 W/m² 22,5 km/h (4 Bft) 100,00 %
27.02.2026 09:02 10,4 °C 12,2 °C 6,1 °C 94 % 1016,5 hPa 0,0 l/m² 2 min 2 min 130 W/m² 12,9 km/h (3 Bft) 100,00 %
27.02.2026 09:04 10,4 °C 12,2 °C 6,7 °C 94 % 1016,4 hPa 0,0 l/m² 2 min 2 min 130 W/m² 16,1 km/h (3 Bft) 98,00 %
27.02.2026 09:06 10,6 °C 12,2 °C 6,7 °C 94 % 1016,4 hPa 0,0 l/m² 2 min 2 min 134 W/m² 19,3 km/h (3 Bft) 97,96 %
27.02.2026 09:08 10,6 °C 12,2 °C 6,7 °C 94 % 1016,4 hPa 0,0 l/m² 2 min 2 min 150 W/m² 16,1 km/h (3 Bft) 100,00 %
27.02.2026 09:10 10,7 °C 12,2 °C 6,7 °C 94 % 1016,4 hPa 0,0 l/m² 2 min 2 min 163 W/m² 16,1 km/h (3 Bft) 100,00 %
27.02.2026 09:12 10,7 °C 12,2 °C 6,7 °C 94 % 1016,4 hPa 0,0 l/m² 0 min 2 min 120 W/m² 22,5 km/h (4 Bft) 100,00 %
27.02.2026 09:14 10,8 °C 12,2 °C 6,7 °C 93 % 1016,4 hPa 0,0 l/m² 2 min 2 min 143 W/m² 16,1 km/h (3 Bft) 100,00 %
27.02.2026 09:16 10,9 °C 12,2 °C 6,7 °C 93 % 1016,3 hPa 0,0 l/m² 2 min 2 min 141 W/m² 19,3 km/h (3 Bft) 100,00 %
27.02.2026 09:18 10,9 °C 12,8 °C 6,7 °C 93 % 1016,3 hPa 0,0 l/m² 0 min 2 min 115 W/m² 19,3 km/h (3 Bft) 100,00 %
27.02.2026 09:20 11,1 °C 12,8 °C 7,2 °C 93 % 1016,3 hPa 0,0 l/m² 0 min 2 min 101 W/m² 16,1 km/h (3 Bft) 100,00 %
27.02.2026 09:22 11,1 °C 12,8 °C 7,2 °C 93 % 1016,3 hPa 0,0 l/m² 0 min 2 min 100 W/m² 16,1 km/h (3 Bft) 97,83 %
27.02.2026 09:24 11,2 °C 13,3 °C 7,2 °C 93 % 1016,3 hPa 0,0 l/m² 0 min 2 min 123 W/m² 16,1 km/h (3 Bft) 97,92 %
27.02.2026 09:26 11,2 °C 13,9 °C 7,2 °C 93 % 1016,2 hPa 0,0 l/m² 2 min 2 min 150 W/m² 19,3 km/h (3 Bft) 100,00 %
27.02.2026 09:28 11,3 °C 13,9 °C 7,2 °C 92 % 1016,3 hPa 0,0 l/m² 2 min 2 min 184 W/m² 12,9 km/h (3 Bft) 100,00 %
27.02.2026 09:30 11,4 °C 13,3 °C 7,2 °C 92 % 1016,3 hPa 0,0 l/m² 2 min 2 min 201 W/m² 19,3 km/h (3 Bft) 100,00 %
27.02.2026 09:32 11,4 °C 12,8 °C 7,2 °C 92 % 1016,4 hPa 0,0 l/m² 2 min 2 min 181 W/m² 16,1 km/h (3 Bft) 100,00 %
27.02.2026 09:34 11,6 °C 12,8 °C 7,2 °C 92 % 1016,4 hPa 0,0 l/m² 2 min 2 min 186 W/m² 19,3 km/h (3 Bft) 100,00 %
27.02.2026 09:36 11,6 °C 12,8 °C 7,2 °C 92 % 1016,4 hPa 0,0 l/m² 0 min 2 min 139 W/m² 16,1 km/h (3 Bft) 100,00 %
27.02.2026 09:38 11,7 °C 12,8 °C 7,2 °C 91 % 1016,4 hPa 0,0 l/m² 0 min 2 min 125 W/m² 12,9 km/h (3 Bft) 97,87 %
27.02.2026 09:40 11,8 °C 12,8 °C 7,8 °C 91 % 1016,3 hPa 0,0 l/m² 0 min 2 min 87 W/m² 25,7 km/h (4 Bft) 97,87 %
27.02.2026 09:42 11,8 °C 12,8 °C 7,8 °C 91 % 1016,4 hPa 0,0 l/m² 0 min 2 min 105 W/m² 19,3 km/h (3 Bft) 97,87 %
27.02.2026 09:44 11,9 °C 12,8 °C 7,8 °C 90 % 1016,3 hPa 0,0 l/m² 2 min 2 min 193 W/m² 16,1 km/h (3 Bft) 97,87 %
27.02.2026 09:46 12,0 °C 13,3 °C 7,8 °C 90 % 1016,3 hPa 0,0 l/m² 0 min 2 min 134 W/m² 16,1 km/h (3 Bft) 95,92 %
27.02.2026 09:48 12,1 °C 13,9 °C 7,8 °C 90 % 1016,3 hPa 0,0 l/m² 0 min 2 min 90 W/m² 12,9 km/h (3 Bft) 97,87 %
27.02.2026 09:50 12,2 °C 13,9 °C 7,8 °C 90 % 1016,3 hPa 0,0 l/m² 0 min 2 min 134 W/m² 12,9 km/h (3 Bft) 97,87 %
27.02.2026 09:52 12,3 °C 13,9 °C 7,8 °C 90 % 1016,3 hPa 0,0 l/m² 0 min 2 min 149 W/m² 16,1 km/h (3 Bft) 95,92 %
27.02.2026 09:54 12,3 °C 13,9 °C 7,8 °C 90 % 1016,2 hPa 0,0 l/m² 2 min 2 min 260 W/m² 16,1 km/h (3 Bft) 97,87 %
27.02.2026 09:56 12,4 °C 13,9 °C 8,3 °C 89 % 1016,2 hPa 0,0 l/m² 2 min 2 min 174 W/m² 16,1 km/h (3 Bft) 97,14 %
27.02.2026 09:58 12,6 °C 14,4 °C 8,3 °C 89 % 1016,2 hPa 0,0 l/m² 2 min 2 min 264 W/m² 12,9 km/h (3 Bft) 97,87 %
27.02.2026 10:00 12,6 °C 15,0 °C 8,3 °C 89 % 1016,2 hPa 0,0 l/m² 2 min 2 min 302 W/m² 16,1 km/h (3 Bft) 97,87 %
27.02.2026 10:02 12,7 °C 15,0 °C 8,3 °C 89 % 1016,2 hPa 0,0 l/m² 2 min 2 min 294 W/m² 16,1 km/h (3 Bft) 97,83 %
27.02.2026 10:04 12,8 °C 15,0 °C 8,3 °C 88 % 1016,2 hPa 0,0 l/m² 2 min 2 min 210 W/m² 19,3 km/h (3 Bft) 97,96 %
27.02.2026 10:06 12,9 °C 15,6 °C 8,9 °C 88 % 1016,2 hPa 0,0 l/m² 2 min 2 min 186 W/m² 16,1 km/h (3 Bft) 96,36 %
27.02.2026 10:08 13,0 °C 15,6 °C 8,9 °C 88 % 1016,2 hPa 0,0 l/m² 0 min 2 min 153 W/m² 22,5 km/h (4 Bft) 97,96 %
27.02.2026 10:10 13,1 °C 16,1 °C 8,9 °C 87 % 1016,2 hPa 0,0 l/m² 0 min 2 min 162 W/m² 16,1 km/h (3 Bft) 97,30 %
27.02.2026 10:12 13,2 °C 16,7 °C 8,9 °C 87 % 1016,2 hPa 0,0 l/m² 2 min 2 min 207 W/m² 22,5 km/h (4 Bft) 97,83 %
27.02.2026 10:14 13,2 °C 17,2 °C 8,9 °C 87 % 1016,1 hPa 0,0 l/m² 2 min 2 min 207 W/m² 12,9 km/h (3 Bft) 89,36 %
27.02.2026 10:16 13,3 °C 17,2 °C 9,4 °C 86 % 1016,1 hPa 0,0 l/m² 0 min 2 min 129 W/m² 16,1 km/h (3 Bft) 97,87 %
27.02.2026 10:18 13,4 °C 17,8 °C 9,4 °C 86 % 1016,1 hPa 0,0 l/m² 0 min 2 min 86 W/m² 12,9 km/h (3 Bft) 97,87 %
27.02.2026 10:20 13,6 °C 18,3 °C 9,4 °C 86 % 1016,1 hPa 0,0 l/m² 0 min 2 min 159 W/m² 19,3 km/h (3 Bft) 97,87 %
27.02.2026 10:22 13,6 °C 18,3 °C 9,4 °C 86 % 1016,1 hPa 0,0 l/m² 2 min 2 min 277 W/m² 22,5 km/h (4 Bft) 100,00 %
27.02.2026 10:24 13,7 °C 18,9 °C 9,4 °C 86 % 1016,0 hPa 0,0 l/m² 2 min 2 min 325 W/m² 19,3 km/h (3 Bft) 97,83 %
27.02.2026 10:26 13,8 °C 19,4 °C 9,4 °C 85 % 1016,0 hPa 0,0 l/m² 2 min 2 min 326 W/m² 25,7 km/h (4 Bft) 97,87 %
27.02.2026 10:28 13,9 °C 20,0 °C 10,0 °C 85 % 1016,0 hPa 0,0 l/m² 2 min 2 min 305 W/m² 16,1 km/h (3 Bft) 97,87 %
27.02.2026 10:30 14,1 °C 20,0 °C 10,0 °C 85 % 1016,0 hPa 0,0 l/m² 2 min 2 min 268 W/m² 19,3 km/h (3 Bft) 93,62 %
27.02.2026 10:32 14,2 °C 19,4 °C 10,0 °C 85 % 1015,9 hPa 0,0 l/m² 2 min 2 min 272 W/m² 25,7 km/h (4 Bft) 97,87 %
27.02.2026 10:34 14,3 °C 18,9 °C 10,6 °C 84 % 1015,9 hPa 0,0 l/m² 2 min 2 min 327 W/m² 22,5 km/h (4 Bft) 95,74 %
27.02.2026 10:36 14,3 °C 18,9 °C 10,6 °C 84 % 1015,9 hPa 0,0 l/m² 2 min 2 min 380 W/m² 16,1 km/h (3 Bft) 97,83 %
27.02.2026 10:38 14,4 °C 20,0 °C 10,6 °C 83 % 1015,9 hPa 0,0 l/m² 2 min 2 min 384 W/m² 12,9 km/h (3 Bft) 97,87 %
27.02.2026 10:40 14,6 °C 20,0 °C 10,6 °C 83 % 1015,9 hPa 0,0 l/m² 2 min 2 min 387 W/m² 22,5 km/h (4 Bft) 95,74 %
27.02.2026 10:42 14,7 °C 20,0 °C 11,1 °C 83 % 1016,0 hPa 0,0 l/m² 2 min 2 min 388 W/m² 19,3 km/h (3 Bft) 97,87 %
27.02.2026 10:44 14,8 °C 20,0 °C 11,1 °C 82 % 1015,9 hPa 0,0 l/m² 2 min 2 min 378 W/m² 19,3 km/h (3 Bft) 97,87 %
27.02.2026 10:46 14,9 °C 20,0 °C 11,1 °C 82 % 1016,0 hPa 0,0 l/m² 2 min 2 min 326 W/m² 16,1 km/h (3 Bft) 97,87 %
27.02.2026 10:48 15,0 °C 21,7 °C 11,1 °C 82 % 1016,0 hPa 0,0 l/m² 2 min 2 min 394 W/m² 16,1 km/h (3 Bft) 97,83 %
27.02.2026 10:50 15,2 °C 21,7 °C 11,1 °C 82 % 1016,0 hPa 0,0 l/m² 2 min 2 min 364 W/m² 19,3 km/h (3 Bft) 93,62 %
27.02.2026 10:52 15,3 °C 21,7 °C 11,7 °C 81 % 1016,1 hPa 0,0 l/m² 2 min 2 min 392 W/m² 19,3 km/h (3 Bft) 95,74 %
27.02.2026 10:54 15,4 °C 22,2 °C 11,7 °C 81 % 1016,0 hPa 0,0 l/m² 2 min 2 min 414 W/m² 16,1 km/h (3 Bft) 97,87 %
27.02.2026 10:56 15,6 °C 21,7 °C 11,7 °C 80 % 1016,0 hPa 0,0 l/m² 2 min 2 min 419 W/m² 19,3 km/h (3 Bft) 97,87 %
27.02.2026 10:58 15,7 °C 22,2 °C 11,7 °C 80 % 1015,9 hPa 0,0 l/m² 2 min 2 min 422 W/m² 19,3 km/h (3 Bft) 97,87 %
27.02.2026 11:00 15,8 °C 22,2 °C 12,2 °C 79 % 1016,1 hPa 0,0 l/m² 2 min 2 min 425 W/m² 25,7 km/h (4 Bft) 97,83 %
27.02.2026 11:02 15,8 °C 22,2 °C 12,8 °C 79 % 1015,9 hPa 0,0 l/m² 2 min 2 min 428 W/m² 22,5 km/h (4 Bft) 100,00 %
27.02.2026 11:04 15,9 °C 22,8 °C 13,9 °C 79 % 1016,0 hPa 0,0 l/m² 2 min 2 min 431 W/m² 19,3 km/h (3 Bft) 97,96 %
27.02.2026 11:06 16,0 °C 23,3 °C 15,0 °C 78 % 1016,1 hPa 0,0 l/m² 2 min 2 min 433 W/m² 19,3 km/h (3 Bft) 100,00 %
27.02.2026 11:08 16,1 °C 23,3 °C 15,6 °C 78 % 1016,1 hPa 0,0 l/m² 2 min 2 min 434 W/m² 16,1 km/h (3 Bft) 97,22 %
27.02.2026 11:10 16,2 °C 23,3 °C 16,1 °C 78 % 1016,1 hPa 0,0 l/m² 2 min 2 min 437 W/m² 25,7 km/h (4 Bft) 100,00 %
27.02.2026 11:12 16,3 °C 23,3 °C 16,7 °C 77 % 1016,1 hPa 0,0 l/m² 2 min 2 min 438 W/m² 22,5 km/h (4 Bft) 100,00 %
27.02.2026 11:14 16,4 °C 23,9 °C 16,7 °C 77 % 1016,1 hPa 0,0 l/m² 2 min 2 min 442 W/m² 12,9 km/h (3 Bft) 100,00 %
27.02.2026 11:16 16,5 °C 23,9 °C 17,2 °C 77 % 1016,1 hPa 0,0 l/m² 2 min 2 min 446 W/m² 16,1 km/h (3 Bft) 100,00 %
27.02.2026 11:18 16,6 °C 23,9 °C 17,2 °C 76 % 1016,2 hPa 0,0 l/m² 2 min 2 min 448 W/m² 22,5 km/h (4 Bft) 97,87 %
27.02.2026 11:20 16,7 °C 23,9 °C 17,2 °C 76 % 1016,1 hPa 0,0 l/m² 2 min 2 min 451 W/m² 16,1 km/h (3 Bft) 100,00 %
27.02.2026 11:22 16,8 °C 24,4 °C 18,3 °C 76 % 1016,1 hPa 0,0 l/m² 2 min 2 min 455 W/m² 19,3 km/h (3 Bft) 100,00 %
27.02.2026 11:24 16,9 °C 24,4 °C 18,3 °C 76 % 1016,1 hPa 0,0 l/m² 2 min 2 min 457 W/m² 16,1 km/h (3 Bft) 100,00 %
27.02.2026 11:26 17,1 °C 25,0 °C 18,3 °C 76 % 1016,0 hPa 0,0 l/m² 2 min 2 min 461 W/m² 16,1 km/h (3 Bft) 100,00 %
27.02.2026 11:28 17,1 °C 25,0 °C 18,3 °C 75 % 1016,0 hPa 0,0 l/m² 2 min 2 min 464 W/m² 12,9 km/h (3 Bft) 97,87 %
27.02.2026 11:30 17,2 °C 25,0 °C 18,9 °C 75 % 1016,0 hPa 0,0 l/m² 2 min 2 min 465 W/m² 16,1 km/h (3 Bft) 100,00 %
27.02.2026 11:32 17,3 °C 25,0 °C 18,9 °C 75 % 1016,0 hPa 0,0 l/m² 2 min 2 min 468 W/m² 19,3 km/h (3 Bft) 97,83 %
27.02.2026 11:34 17,4 °C 25,6 °C 18,9 °C 75 % 1016,0 hPa 0,0 l/m² 2 min 2 min 469 W/m² 16,1 km/h (3 Bft) 95,74 %
27.02.2026 11:36 17,5 °C 26,1 °C 19,4 °C 75 % 1016,0 hPa 0,0 l/m² 2 min 2 min 473 W/m² 16,1 km/h (3 Bft) 97,87 %
27.02.2026 11:38 17,6 °C 25,0 °C 19,4 °C 74 % 1016,0 hPa 0,0 l/m² 2 min 2 min 472 W/m² 22,5 km/h (4 Bft) 97,87 %
27.02.2026 11:40 17,7 °C 25,0 °C 18,9 °C 73 % 1015,9 hPa 0,0 l/m² 2 min 2 min 473 W/m² 19,3 km/h (3 Bft) 97,87 %
27.02.2026 11:42 17,7 °C 25,0 °C 19,4 °C 74 % 1015,9 hPa 0,0 l/m² 2 min 2 min 476 W/m² 16,1 km/h (3 Bft) 97,87 %
27.02.2026 11:44 17,8 °C 25,0 °C 19,4 °C 73 % 1015,9 hPa 0,0 l/m² 2 min 2 min 479 W/m² 22,5 km/h (4 Bft) 97,83 %
27.02.2026 11:46 17,9 °C 25,0 °C 19,4 °C 73 % 1015,9 hPa 0,0 l/m² 2 min 2 min 481 W/m² 16,1 km/h (3 Bft) 97,87 %
27.02.2026 11:48 18,0 °C 25,0 °C 19,4 °C 73 % 1015,9 hPa 0,0 l/m² 2 min 2 min 483 W/m² 19,3 km/h (3 Bft) 97,87 %
27.02.2026 11:50 18,1 °C 25,0 °C 19,4 °C 73 % 1015,9 hPa 0,0 l/m² 2 min 2 min 485 W/m² 19,3 km/h (3 Bft) 95,74 %
27.02.2026 11:52 18,2 °C 25,6 °C 18,9 °C 73 % 1015,8 hPa 0,0 l/m² 2 min 2 min 487 W/m² 19,3 km/h (3 Bft) 97,87 %
27.02.2026 11:54 18,2 °C 24,4 °C 18,9 °C 72 % 1015,7 hPa 0,0 l/m² 2 min 2 min 489 W/m² 29,0 km/h (5 Bft) 97,96 %
27.02.2026 11:56 18,2 °C 23,3 °C 18,3 °C 72 % 1015,8 hPa 0,0 l/m² 2 min 2 min 489 W/m² 25,7 km/h (4 Bft) 97,87 %
27.02.2026 11:58 18,2 °C 23,3 °C 17,8 °C 72 % 1015,7 hPa 0,0 l/m² 2 min 2 min 490 W/m² 22,5 km/h (4 Bft) 97,78 %
27.02.2026 12:00 18,2 °C 23,9 °C 17,8 °C 73 % 1015,7 hPa 0,0 l/m² 2 min 2 min 490 W/m² 16,1 km/h (3 Bft) 100,00 %
27.02.2026 12:02 18,2 °C 22,2 °C 17,2 °C 72 % 1015,7 hPa 0,0 l/m² 2 min 2 min 491 W/m² 19,3 km/h (3 Bft) 100,00 %
27.02.2026 12:04 18,2 °C 22,2 °C 17,2 °C 72 % 1015,6 hPa 0,0 l/m² 2 min 2 min 493 W/m² 19,3 km/h (3 Bft) 97,96 %
27.02.2026 12:08 18,2 °C 22,2 °C 17,2 °C 72 % 1015,6 hPa 0,0 l/m² 4 min 4 min 496 W/m² 22,5 km/h (4 Bft) 94,12 %
27.02.2026 12:10 18,2 °C 21,7 °C 16,7 °C 73 % 1015,6 hPa 0,0 l/m² 2 min 2 min 496 W/m² 16,1 km/h (3 Bft) 100,00 %
27.02.2026 12:12 18,2 °C 21,1 °C 16,7 °C 73 % 1015,6 hPa 0,0 l/m² 2 min 2 min 496 W/m² 12,9 km/h (3 Bft) 93,62 %
27.02.2026 12:14 18,3 °C 20,6 °C 16,1 °C 73 % 1015,6 hPa 0,0 l/m² 2 min 2 min 498 W/m² 19,3 km/h (3 Bft) 93,62 %
27.02.2026 12:16 18,3 °C 19,4 °C 15,6 °C 72 % 1015,5 hPa 0,0 l/m² 2 min 2 min 499 W/m² 19,3 km/h (3 Bft) 95,74 %
27.02.2026 12:18 18,3 °C 19,4 °C 15,6 °C 72 % 1015,5 hPa 0,0 l/m² 2 min 2 min 501 W/m² 19,3 km/h (3 Bft) 95,74 %
27.02.2026 12:20 18,3 °C 20,6 °C 15,6 °C 72 % 1015,5 hPa 0,0 l/m² 2 min 2 min 499 W/m² 16,1 km/h (3 Bft) 93,62 %
27.02.2026 12:22 18,3 °C 21,1 °C 16,7 °C 72 % 1015,5 hPa 0,0 l/m² 2 min 2 min 500 W/m² 19,3 km/h (3 Bft) 93,48 %
27.02.2026 12:24 18,4 °C 21,7 °C 17,2 °C 72 % 1015,4 hPa 0,0 l/m² 2 min 2 min 499 W/m² 16,1 km/h (3 Bft) 93,62 %
27.02.2026 12:26 18,4 °C 21,7 °C 16,7 °C 72 % 1015,4 hPa 0,0 l/m² 2 min 2 min 500 W/m² 16,1 km/h (3 Bft) 93,75 %
27.02.2026 12:28 18,4 °C 22,2 °C 16,7 °C 72 % 1015,4 hPa 0,0 l/m² 2 min 2 min 498 W/m² 22,5 km/h (4 Bft) 95,74 %
27.02.2026 12:30 18,5 °C 22,8 °C 16,7 °C 72 % 1015,4 hPa 0,0 l/m² 2 min 2 min 501 W/m² 12,9 km/h (3 Bft) 91,49 %
27.02.2026 12:32 18,5 °C 23,3 °C 16,7 °C 72 % 1015,4 hPa 0,0 l/m² 2 min 2 min 503 W/m² 22,5 km/h (4 Bft) 91,30 %
27.02.2026 12:34 18,6 °C 23,9 °C 16,7 °C 72 % 1015,4 hPa 0,0 l/m² 2 min 2 min 502 W/m² 19,3 km/h (3 Bft) 89,36 %
27.02.2026 12:36 18,6 °C 24,4 °C 16,7 °C 72 % 1015,4 hPa 0,0 l/m² 2 min 2 min 503 W/m² 16,1 km/h (3 Bft) 93,62 %
27.02.2026 12:38 18,7 °C 25,0 °C 16,7 °C 72 % 1015,4 hPa 0,0 l/m² 2 min 2 min 504 W/m² 16,1 km/h (3 Bft) 93,62 %
27.02.2026 12:40 18,8 °C 25,0 °C 16,7 °C 72 % 1015,3 hPa 0,0 l/m² 2 min 2 min 505 W/m² 19,3 km/h (3 Bft) 93,62 %
27.02.2026 12:42 18,8 °C 26,1 °C 16,7 °C 72 % 1015,3 hPa 0,0 l/m² 2 min 2 min 507 W/m² 12,9 km/h (3 Bft) 95,74 %
27.02.2026 12:44 18,9 °C 25,6 °C 16,7 °C 72 % 1015,3 hPa 0,0 l/m² 2 min 2 min 509 W/m² 22,5 km/h (4 Bft) 95,65 %
27.02.2026 12:46 19,0 °C 26,1 °C 16,7 °C 68 % 1015,2 hPa 0,0 l/m² 2 min 2 min 507 W/m² 19,3 km/h (3 Bft) 95,74 %
27.02.2026 12:48 19,1 °C 27,2 °C 16,7 °C 68 % 1015,2 hPa 0,0 l/m² 2 min 2 min 506 W/m² 12,9 km/h (3 Bft) 95,74 %
27.02.2026 12:50 19,2 °C 27,2 °C 16,7 °C 68 % 1015,2 hPa 0,0 l/m² 2 min 2 min 506 W/m² 16,1 km/h (3 Bft) 93,62 %
27.02.2026 12:52 19,3 °C 27,2 °C 16,7 °C 69 % 1015,2 hPa 0,0 l/m² 2 min 2 min 510 W/m² 12,9 km/h (3 Bft) 95,74 %
27.02.2026 12:54 19,4 °C 25,6 °C 16,7 °C 69 % 1015,1 hPa 0,0 l/m² 2 min 2 min 510 W/m² 19,3 km/h (3 Bft) 97,62 %
27.02.2026 12:56 19,4 °C 25,6 °C 16,7 °C 67 % 1015,1 hPa 0,0 l/m² 2 min 2 min 511 W/m² 22,5 km/h (4 Bft) 97,87 %
27.02.2026 12:58 19,5 °C 25,6 °C 16,7 °C 64 % 1015,1 hPa 0,0 l/m² 2 min 2 min 509 W/m² 22,5 km/h (4 Bft) 95,92 %
27.02.2026 13:00 19,6 °C 25,6 °C 16,7 °C 63 % 1015,1 hPa 0,0 l/m² 2 min 2 min 508 W/m² 29,0 km/h (5 Bft) 97,87 %
27.02.2026 13:02 19,6 °C 25,6 °C 16,7 °C 62 % 1015,0 hPa 0,0 l/m² 2 min 2 min 510 W/m² 29,0 km/h (5 Bft) 95,74 %
27.02.2026 13:04 19,7 °C 26,1 °C 16,7 °C 62 % 1015,0 hPa 0,0 l/m² 2 min 2 min 509 W/m² 12,9 km/h (3 Bft) 95,92 %
27.02.2026 13:06 19,8 °C 25,6 °C 16,7 °C 62 % 1015,0 hPa 0,0 l/m² 2 min 2 min 509 W/m² 32,2 km/h (5 Bft) 96,55 %
27.02.2026 13:08 19,8 °C 25,6 °C 16,7 °C 61 % 1015,0 hPa 0,0 l/m² 2 min 2 min 509 W/m² 22,5 km/h (4 Bft) 97,87 %
27.02.2026 13:10 19,9 °C 26,1 °C 16,7 °C 61 % 1015,0 hPa 0,0 l/m² 2 min 2 min 507 W/m² 19,3 km/h (3 Bft) 97,14 %
27.02.2026 13:12 19,9 °C 26,1 °C 16,7 °C 60 % 1015,0 hPa 0,0 l/m² 2 min 2 min 508 W/m² 29,0 km/h (5 Bft) 97,87 %
27.02.2026 13:14 20,1 °C 26,1 °C 16,7 °C 59 % 1014,9 hPa 0,0 l/m² 2 min 2 min 505 W/m² 16,1 km/h (3 Bft) 97,87 %
27.02.2026 13:16 20,1 °C 26,1 °C 16,7 °C 60 % 1014,9 hPa 0,0 l/m² 2 min 2 min 506 W/m² 19,3 km/h (3 Bft) 95,74 %
27.02.2026 13:18 20,1 °C 26,1 °C 16,7 °C 59 % 1014,9 hPa 0,0 l/m² 2 min 2 min 506 W/m² 25,7 km/h (4 Bft) 97,83 %
27.02.2026 13:20 20,2 °C 25,6 °C 16,7 °C 59 % 1014,9 hPa 0,0 l/m² 2 min 2 min 506 W/m² 35,4 km/h (5 Bft) 97,87 %
27.02.2026 13:22 20,1 °C 25,6 °C 15,6 °C 59 % 1014,9 hPa 0,0 l/m² 2 min 2 min 502 W/m² 22,5 km/h (4 Bft) 95,74 %
27.02.2026 13:24 20,1 °C 25,6 °C 15,6 °C 59 % 1014,9 hPa 0,0 l/m² 2 min 2 min 499 W/m² 25,7 km/h (4 Bft) 100,00 %
27.02.2026 13:26 20,1 °C 25,6 °C 15,6 °C 59 % 1014,9 hPa 0,0 l/m² 2 min 2 min 500 W/m² 25,7 km/h (4 Bft) 100,00 %
27.02.2026 13:28 20,1 °C 26,1 °C 15,6 °C 59 % 1014,8 hPa 0,0 l/m² 2 min 2 min 511 W/m² 19,3 km/h (3 Bft) 100,00 %
27.02.2026 13:30 20,2 °C 26,1 °C 15,6 °C 59 % 1014,9 hPa 0,0 l/m² 2 min 2 min 533 W/m² 25,7 km/h (4 Bft) 100,00 %
27.02.2026 13:32 20,1 °C 25,6 °C 15,6 °C 58 % 1014,9 hPa 0,0 l/m² 2 min 2 min 551 W/m² 35,4 km/h (5 Bft) 100,00 %
27.02.2026 13:34 20,2 °C 25,0 °C 15,6 °C 57 % 1014,8 hPa 0,0 l/m² 2 min 2 min 551 W/m² 35,4 km/h (5 Bft) 100,00 %
27.02.2026 13:36 20,2 °C 25,0 °C 15,6 °C 58 % 1014,8 hPa 0,0 l/m² 2 min 2 min 522 W/m² 22,5 km/h (4 Bft) 100,00 %
27.02.2026 13:38 20,2 °C 25,0 °C 15,6 °C 58 % 1014,8 hPa 0,0 l/m² 2 min 2 min 508 W/m² 29,0 km/h (5 Bft) 100,00 %
27.02.2026 13:40 20,3 °C 25,6 °C 15,6 °C 57 % 1014,7 hPa 0,0 l/m² 2 min 2 min 497 W/m² 22,5 km/h (4 Bft) 100,00 %
27.02.2026 13:42 20,3 °C 25,0 °C 15,6 °C 57 % 1014,8 hPa 0,0 l/m² 2 min 2 min 498 W/m² 32,2 km/h (5 Bft) 100,00 %
27.02.2026 13:44 20,3 °C 25,0 °C 15,6 °C 56 % 1014,7 hPa 0,0 l/m² 2 min 2 min 497 W/m² 29,0 km/h (5 Bft) 97,87 %
27.02.2026 13:46 20,3 °C 25,6 °C 15,6 °C 56 % 1014,8 hPa 0,0 l/m² 2 min 2 min 494 W/m² 22,5 km/h (4 Bft) 100,00 %
27.02.2026 13:48 20,3 °C 25,0 °C 15,6 °C 56 % 1014,7 hPa 0,0 l/m² 2 min 2 min 496 W/m² 35,4 km/h (5 Bft) 100,00 %
27.02.2026 13:50 20,3 °C 24,4 °C 15,6 °C 56 % 1014,6 hPa 0,0 l/m² 2 min 2 min 493 W/m² 48,3 km/h (6 Bft) 100,00 %
27.02.2026 13:52 20,3 °C 23,9 °C 15,6 °C 56 % 1014,7 hPa 0,0 l/m² 2 min 2 min 486 W/m² 35,4 km/h (5 Bft) 100,00 %
27.02.2026 13:54 20,3 °C 23,9 °C 15,6 °C 56 % 1014,6 hPa 0,0 l/m² 2 min 2 min 483 W/m² 22,5 km/h (4 Bft) 100,00 %
27.02.2026 13:56 20,3 °C 24,4 °C 15,6 °C 56 % 1014,5 hPa 0,0 l/m² 2 min 2 min 482 W/m² 29,0 km/h (5 Bft) 100,00 %
27.02.2026 13:58 20,4 °C 25,0 °C 15,6 °C 57 % 1014,5 hPa 0,0 l/m² 2 min 2 min 476 W/m² 25,7 km/h (4 Bft) 100,00 %
27.02.2026 14:00 20,5 °C 26,1 °C 15,6 °C 57 % 1014,5 hPa 0,0 l/m² 2 min 2 min 477 W/m² 22,5 km/h (4 Bft) 98,00 %
27.02.2026 14:02 20,6 °C 25,6 °C 15,6 °C 56 % 1014,5 hPa 0,0 l/m² 2 min 2 min 475 W/m² 29,0 km/h (5 Bft) 100,00 %
27.02.2026 14:04 20,6 °C 25,6 °C 15,6 °C 56 % 1014,4 hPa 0,0 l/m² 2 min 2 min 471 W/m² 22,5 km/h (4 Bft) 100,00 %
27.02.2026 14:06 20,6 °C 25,6 °C 15,6 °C 57 % 1014,5 hPa 0,0 l/m² 2 min 2 min 471 W/m² 19,3 km/h (3 Bft) 100,00 %
27.02.2026 14:08 20,6 °C 25,0 °C 15,6 °C 57 % 1014,4 hPa 0,0 l/m² 2 min 2 min 469 W/m² 25,7 km/h (4 Bft) 100,00 %
27.02.2026 14:10 20,7 °C 25,6 °C 15,6 °C 57 % 1014,4 hPa 0,0 l/m² 2 min 2 min 468 W/m² 22,5 km/h (4 Bft) 100,00 %
27.02.2026 14:12 20,7 °C 25,6 °C 15,6 °C 57 % 1014,3 hPa 0,0 l/m² 2 min 2 min 465 W/m² 16,1 km/h (3 Bft) 100,00 %
27.02.2026 14:14 20,8 °C 25,0 °C 15,6 °C 55 % 1014,3 hPa 0,0 l/m² 2 min 2 min 462 W/m² 22,5 km/h (4 Bft) 100,00 %
27.02.2026 14:16 20,8 °C 25,6 °C 15,6 °C 56 % 1014,2 hPa 0,0 l/m² 2 min 2 min 461 W/m² 19,3 km/h (3 Bft) 100,00 %
27.02.2026 14:18 20,8 °C 25,0 °C 15,6 °C 55 % 1014,3 hPa 0,0 l/m² 2 min 2 min 459 W/m² 25,7 km/h (4 Bft) 100,00 %
27.02.2026 14:20 20,8 °C 24,4 °C 15,6 °C 55 % 1014,3 hPa 0,0 l/m² 2 min 2 min 455 W/m² 32,2 km/h (5 Bft) 100,00 %
27.02.2026 14:22 20,8 °C 24,4 °C 15,6 °C 54 % 1014,3 hPa 0,0 l/m² 2 min 2 min 453 W/m² 35,4 km/h (5 Bft) 97,87 %
27.02.2026 14:24 20,7 °C 23,9 °C 15,6 °C 54 % 1014,3 hPa 0,0 l/m² 2 min 2 min 447 W/m² 38,6 km/h (5 Bft) 97,67 %
27.02.2026 14:26 20,7 °C 23,9 °C 15,6 °C 54 % 1014,3 hPa 0,0 l/m² 2 min 2 min 448 W/m² 29,0 km/h (5 Bft) 98,00 %
27.02.2026 14:28 20,6 °C 23,9 °C 15,6 °C 55 % 1014,3 hPa 0,0 l/m² 2 min 2 min 444 W/m² 22,5 km/h (4 Bft) 95,74 %
27.02.2026 14:30 20,6 °C 23,9 °C 15,6 °C 54 % 1014,4 hPa 0,0 l/m² 2 min 2 min 440 W/m² 22,5 km/h (4 Bft) 97,87 %
27.02.2026 14:32 20,6 °C 23,3 °C 15,6 °C 54 % 1014,4 hPa 0,0 l/m² 2 min 2 min 437 W/m² 25,7 km/h (4 Bft) 95,35 %
27.02.2026 14:34 20,6 °C 23,9 °C 15,6 °C 55 % 1014,2 hPa 0,0 l/m² 2 min 2 min 425 W/m² 25,7 km/h (4 Bft) 98,00 %
27.02.2026 14:36 20,6 °C 23,9 °C 15,6 °C 55 % 1014,3 hPa 0,0 l/m² 2 min 2 min 424 W/m² 25,7 km/h (4 Bft) 93,75 %
27.02.2026 14:38 20,6 °C 23,9 °C 15,6 °C 55 % 1014,3 hPa 0,0 l/m² 2 min 2 min 422 W/m² 25,7 km/h (4 Bft) 97,87 %
27.02.2026 14:40 20,7 °C 24,4 °C 15,6 °C 54 % 1014,3 hPa 0,0 l/m² 2 min 2 min 422 W/m² 29,0 km/h (5 Bft) 95,24 %
27.02.2026 14:42 20,6 °C 23,3 °C 15,6 °C 53 % 1014,3 hPa 0,0 l/m² 2 min 2 min 426 W/m² 38,6 km/h (5 Bft) 97,87 %
27.02.2026 14:44 20,6 °C 23,9 °C 15,6 °C 53 % 1014,3 hPa 0,0 l/m² 2 min 2 min 419 W/m² 25,7 km/h (4 Bft) 93,62 %
27.02.2026 14:46 20,6 °C 23,9 °C 15,6 °C 53 % 1014,3 hPa 0,0 l/m² 2 min 2 min 418 W/m² 38,6 km/h (5 Bft) 96,00 %
27.02.2026 14:48 20,6 °C 23,3 °C 15,6 °C 53 % 1014,3 hPa 0,0 l/m² 2 min 2 min 414 W/m² 35,4 km/h (5 Bft) 93,62 %
27.02.2026 14:50 20,6 °C 23,9 °C 15,6 °C 53 % 1014,3 hPa 0,0 l/m² 2 min 2 min 411 W/m² 29,0 km/h (5 Bft) 95,83 %
27.02.2026 14:52 20,6 °C 23,9 °C 15,6 °C 53 % 1014,3 hPa 0,0 l/m² 2 min 2 min 405 W/m² 25,7 km/h (4 Bft) 93,48 %
27.02.2026 14:54 20,6 °C 23,3 °C 15,6 °C 53 % 1014,3 hPa 0,0 l/m² 2 min 2 min 403 W/m² 35,4 km/h (5 Bft) 96,00 %
27.02.2026 14:56 20,4 °C 23,9 °C 15,0 °C 54 % 1014,3 hPa 0,0 l/m² 2 min 2 min 400 W/m² 25,7 km/h (4 Bft) 94,29 %
27.02.2026 14:58 20,4 °C 23,9 °C 15,0 °C 53 % 1014,4 hPa 0,0 l/m² 2 min 2 min 398 W/m² 35,4 km/h (5 Bft) 96,00 %
27.02.2026 15:00 20,3 °C 23,9 °C 15,0 °C 54 % 1014,3 hPa 0,0 l/m² 2 min 2 min 397 W/m² 19,3 km/h (3 Bft) 98,18 %
27.02.2026 15:02 20,3 °C 24,4 °C 15,0 °C 54 % 1014,2 hPa 0,0 l/m² 2 min 2 min 391 W/m² 16,1 km/h (3 Bft) 95,65 %
27.02.2026 15:04 20,3 °C 23,9 °C 15,0 °C 55 % 1014,2 hPa 0,0 l/m² 2 min 2 min 388 W/m² 22,5 km/h (4 Bft) 96,00 %
27.02.2026 15:06 20,3 °C 23,3 °C 15,0 °C 53 % 1014,2 hPa 0,0 l/m² 2 min 2 min 386 W/m² 29,0 km/h (5 Bft) 95,74 %
27.02.2026 15:08 20,3 °C 23,3 °C 15,0 °C 53 % 1014,3 hPa 0,0 l/m² 2 min 2 min 386 W/m² 35,4 km/h (5 Bft) 97,92 %
27.02.2026 15:10 20,2 °C 23,3 °C 15,0 °C 53 % 1014,3 hPa 0,0 l/m² 2 min 2 min 391 W/m² 32,2 km/h (5 Bft) 94,29 %
27.02.2026 15:12 20,2 °C 22,2 °C 15,0 °C 53 % 1014,3 hPa 0,0 l/m² 2 min 2 min 299 W/m² 29,0 km/h (5 Bft) 97,96 %
27.02.2026 15:14 20,1 °C 22,2 °C 15,0 °C 53 % 1014,2 hPa 0,0 l/m² 0 min 2 min 168 W/m² 25,7 km/h (4 Bft) 97,92 %
27.02.2026 15:16 20,1 °C 22,8 °C 15,0 °C 53 % 1014,2 hPa 0,0 l/m² 2 min 2 min 398 W/m² 25,7 km/h (4 Bft) 97,83 %
27.02.2026 15:18 20,0 °C 22,8 °C 15,0 °C 54 % 1014,2 hPa 0,0 l/m² 2 min 2 min 343 W/m² 12,9 km/h (3 Bft) 94,55 %
27.02.2026 15:20 20,0 °C 21,7 °C 15,0 °C 54 % 1014,3 hPa 0,0 l/m² 2 min 2 min 201 W/m² 16,1 km/h (3 Bft) 97,37 %
27.02.2026 15:22 19,9 °C 21,7 °C 15,0 °C 54 % 1014,3 hPa 0,0 l/m² 2 min 2 min 255 W/m² 16,1 km/h (3 Bft) 97,92 %
27.02.2026 15:24 19,8 °C 21,1 °C 14,4 °C 55 % 1014,3 hPa 0,0 l/m² 2 min 2 min 318 W/m² 22,5 km/h (4 Bft) 95,74 %
27.02.2026 15:26 19,8 °C 21,1 °C 14,4 °C 55 % 1014,2 hPa 0,0 l/m² 2 min 2 min 223 W/m² 22,5 km/h (4 Bft) 98,15 %
27.02.2026 15:28 19,7 °C 21,7 °C 14,4 °C 55 % 1014,2 hPa 0,0 l/m² 2 min 2 min 215 W/m² 19,3 km/h (3 Bft) 97,37 %
27.02.2026 15:30 19,7 °C 22,2 °C 14,4 °C 56 % 1014,2 hPa 0,0 l/m² 2 min 2 min 327 W/m² 19,3 km/h (3 Bft) 100,00 %
27.02.2026 15:32 19,7 °C 22,8 °C 14,4 °C 56 % 1014,2 hPa 0,0 l/m² 2 min 2 min 331 W/m² 22,5 km/h (4 Bft) 97,87 %
27.02.2026 15:34 19,7 °C 22,2 °C 14,4 °C 55 % 1014,3 hPa 0,0 l/m² 2 min 2 min 331 W/m² 29,0 km/h (5 Bft) 98,18 %
27.02.2026 15:36 19,7 °C 22,2 °C 14,4 °C 54 % 1014,3 hPa 0,0 l/m² 2 min 2 min 328 W/m² 29,0 km/h (5 Bft) 97,37 %
27.02.2026 15:38 19,7 °C 22,2 °C 14,4 °C 55 % 1014,3 hPa 0,0 l/m² 2 min 2 min 320 W/m² 22,5 km/h (4 Bft) 97,92 %
27.02.2026 15:40 19,7 °C 21,7 °C 14,4 °C 54 % 1014,3 hPa 0,0 l/m² 2 min 2 min 316 W/m² 25,7 km/h (4 Bft) 97,83 %
27.02.2026 15:42 19,7 °C 21,7 °C 14,4 °C 54 % 1014,4 hPa 0,0 l/m² 2 min 2 min 312 W/m² 22,5 km/h (4 Bft) 96,36 %
27.02.2026 15:44 19,6 °C 21,7 °C 14,4 °C 55 % 1014,3 hPa 0,0 l/m² 2 min 2 min 308 W/m² 25,7 km/h (4 Bft) 97,37 %
27.02.2026 15:46 19,6 °C 21,7 °C 14,4 °C 55 % 1014,3 hPa 0,0 l/m² 2 min 2 min 306 W/m² 25,7 km/h (4 Bft) 97,92 %
27.02.2026 15:48 19,6 °C 21,7 °C 14,4 °C 56 % 1014,3 hPa 0,0 l/m² 2 min 2 min 301 W/m² 16,1 km/h (3 Bft) 97,87 %
27.02.2026 15:50 19,6 °C 22,2 °C 14,4 °C 55 % 1014,3 hPa 0,0 l/m² 2 min 2 min 298 W/m² 19,3 km/h (3 Bft) 96,30 %
27.02.2026 15:52 19,6 °C 22,2 °C 14,4 °C 55 % 1014,3 hPa 0,0 l/m² 2 min 2 min 294 W/m² 16,1 km/h (3 Bft) 97,37 %
27.02.2026 15:54 19,7 °C 22,2 °C 14,4 °C 56 % 1014,3 hPa 0,0 l/m² 2 min 2 min 290 W/m² 22,5 km/h (4 Bft) 98,00 %
27.02.2026 15:56 19,6 °C 21,7 °C 14,4 °C 56 % 1014,3 hPa 0,0 l/m² 2 min 2 min 286 W/m² 16,1 km/h (3 Bft) 97,87 %
27.02.2026 15:58 19,5 °C 21,1 °C 13,9 °C 56 % 1014,4 hPa 0,0 l/m² 2 min 2 min 279 W/m² 25,7 km/h (4 Bft) 98,00 %
27.02.2026 16:00 19,5 °C 21,1 °C 13,9 °C 57 % 1014,3 hPa 0,0 l/m² 2 min 2 min 274 W/m² 22,5 km/h (4 Bft) 95,83 %
27.02.2026 16:02 19,4 °C 21,1 °C 13,9 °C 57 % 1014,3 hPa 0,0 l/m² 2 min 2 min 268 W/m² 12,9 km/h (3 Bft) 97,14 %
27.02.2026 16:04 19,4 °C 21,1 °C 13,9 °C 57 % 1014,1 hPa 0,0 l/m² 2 min 2 min 262 W/m² 22,5 km/h (4 Bft) 98,04 %
27.02.2026 16:06 19,3 °C 20,0 °C 13,9 °C 56 % 1014,2 hPa 0,0 l/m² 2 min 2 min 256 W/m² 22,5 km/h (4 Bft) 98,11 %
27.02.2026 16:08 19,3 °C 19,4 °C 13,9 °C 57 % 1014,3 hPa 0,0 l/m² 2 min 2 min 251 W/m² 19,3 km/h (3 Bft) 98,04 %
27.02.2026 16:10 19,3 °C 18,9 °C 13,9 °C 57 % 1014,3 hPa 0,0 l/m² 2 min 2 min 246 W/m² 19,3 km/h (3 Bft) 97,30 %
27.02.2026 16:12 19,2 °C 18,9 °C 13,9 °C 57 % 1014,3 hPa 0,0 l/m² 2 min 2 min 239 W/m² 16,1 km/h (3 Bft) 94,34 %
27.02.2026 16:14 19,2 °C 18,3 °C 13,9 °C 57 % 1014,2 hPa 0,0 l/m² 2 min 2 min 231 W/m² 16,1 km/h (3 Bft) 97,96 %
27.02.2026 16:16 19,1 °C 18,3 °C 13,9 °C 57 % 1014,3 hPa 0,0 l/m² 2 min 2 min 228 W/m² 35,4 km/h (5 Bft) 97,37 %
27.02.2026 16:18 19,1 °C 18,3 °C 13,9 °C 57 % 1014,3 hPa 0,0 l/m² 2 min 2 min 222 W/m² 19,3 km/h (3 Bft) 98,00 %
27.02.2026 16:20 19,1 °C 18,3 °C 13,9 °C 57 % 1014,3 hPa 0,0 l/m² 2 min 2 min 217 W/m² 25,7 km/h (4 Bft) 95,74 %
27.02.2026 16:22 18,9 °C 18,3 °C 13,9 °C 58 % 1014,2 hPa 0,0 l/m² 2 min 2 min 211 W/m² 12,9 km/h (3 Bft) 97,73 %
27.02.2026 16:24 18,9 °C 18,3 °C 13,9 °C 57 % 1014,2 hPa 0,0 l/m² 2 min 2 min 199 W/m² 25,7 km/h (4 Bft) 100,00 %
27.02.2026 16:26 18,8 °C 17,8 °C 13,3 °C 56 % 1014,2 hPa 0,0 l/m² 0 min 2 min 110 W/m² 25,7 km/h (4 Bft) 97,83 %
27.02.2026 16:28 18,7 °C 17,8 °C 13,3 °C 56 % 1014,3 hPa 0,0 l/m² 0 min 2 min 96 W/m² 25,7 km/h (4 Bft) 100,00 %
27.02.2026 16:30 18,7 °C 17,8 °C 13,3 °C 57 % 1014,3 hPa 0,0 l/m² 0 min 2 min 113 W/m² 16,1 km/h (3 Bft) 97,73 %
27.02.2026 16:32 18,6 °C 17,8 °C 13,3 °C 57 % 1014,3 hPa 0,0 l/m² 0 min 2 min 88 W/m² 25,7 km/h (4 Bft) 100,00 %
27.02.2026 16:34 18,5 °C 17,8 °C 13,3 °C 56 % 1014,2 hPa 0,0 l/m² 0 min 2 min 70 W/m² 22,5 km/h (4 Bft) 100,00 %
27.02.2026 16:36 18,4 °C 17,8 °C 13,3 °C 57 % 1014,2 hPa 0,0 l/m² 0 min 2 min 61 W/m² 16,1 km/h (3 Bft) 100,00 %
27.02.2026 16:38 18,4 °C 17,2 °C 13,3 °C 57 % 1014,3 hPa 0,0 l/m² 0 min 2 min 49 W/m² 16,1 km/h (3 Bft) 100,00 %
27.02.2026 16:40 18,3 °C 17,2 °C 12,8 °C 58 % 1014,2 hPa 0,0 l/m² 0 min 2 min 38 W/m² 16,1 km/h (3 Bft) 98,00 %
27.02.2026 16:42 18,2 °C 17,2 °C 12,8 °C 58 % 1014,2 hPa 0,0 l/m² 0 min 2 min 33 W/m² 12,9 km/h (3 Bft) 97,87 %
27.02.2026 16:44 18,1 °C 16,7 °C 12,8 °C 58 % 1014,2 hPa 0,0 l/m² 0 min 2 min 31 W/m² 9,7 km/h (2 Bft) 97,87 %
27.02.2026 16:46 17,9 °C 16,7 °C 12,8 °C 58 % 1014,2 hPa 0,0 l/m² 0 min 2 min 30 W/m² 16,1 km/h (3 Bft) 97,73 %
27.02.2026 16:48 17,9 °C 16,7 °C 12,8 °C 59 % 1014,2 hPa 0,0 l/m² 0 min 2 min 30 W/m² 12,9 km/h (3 Bft) 98,00 %
27.02.2026 16:50 17,8 °C 16,7 °C 12,8 °C 59 % 1014,1 hPa 0,0 l/m² 0 min 2 min 32 W/m² 12,9 km/h (3 Bft) 97,83 %
27.02.2026 16:52 17,7 °C 16,7 °C 12,2 °C 60 % 1014,1 hPa 0,0 l/m² 0 min 2 min 35 W/m² 12,9 km/h (3 Bft) 97,87 %
27.02.2026 16:54 17,7 °C 16,7 °C 12,2 °C 59 % 1014,1 hPa 0,0 l/m² 0 min 2 min 36 W/m² 12,9 km/h (3 Bft) 97,87 %
27.02.2026 16:56 17,6 °C 16,7 °C 12,2 °C 59 % 1014,1 hPa 0,0 l/m² 0 min 2 min 37 W/m² 12,9 km/h (3 Bft) 95,74 %
27.02.2026 16:58 17,6 °C 16,7 °C 12,2 °C 60 % 1014,1 hPa 0,0 l/m² 0 min 2 min 35 W/m² 12,9 km/h (3 Bft) 97,87 %
27.02.2026 17:00 17,6 °C 16,7 °C 12,2 °C 60 % 1014,1 hPa 0,0 l/m² 0 min 2 min 33 W/m² 16,1 km/h (3 Bft) 97,87 %
27.02.2026 17:02 17,6 °C 16,7 °C 12,2 °C 59 % 1014,1 hPa 0,0 l/m² 0 min 2 min 32 W/m² 16,1 km/h (3 Bft) 97,83 %
27.02.2026 17:04 17,6 °C 16,7 °C 12,2 °C 59 % 1014,1 hPa 0,0 l/m² 0 min 2 min 29 W/m² 12,9 km/h (3 Bft) 97,96 %
27.02.2026 17:06 17,5 °C 16,7 °C 12,2 °C 60 % 1014,1 hPa 0,0 l/m² 0 min 2 min 27 W/m² 12,9 km/h (3 Bft) 97,87 %
27.02.2026 17:08 17,5 °C 16,7 °C 12,2 °C 59 % 1014,2 hPa 0,0 l/m² 0 min 2 min 24 W/m² 12,9 km/h (3 Bft) 97,87 %
27.02.2026 17:10 17,4 °C 16,7 °C 12,2 °C 59 % 1014,2 hPa 0,0 l/m² 0 min 2 min 22 W/m² 12,9 km/h (3 Bft) 97,14 %
27.02.2026 17:12 17,4 °C 16,1 °C 12,2 °C 59 % 1014,2 hPa 0,0 l/m² 0 min 2 min 21 W/m² 19,3 km/h (3 Bft) 98,15 %
27.02.2026 17:14 17,3 °C 16,1 °C 12,2 °C 59 % 1014,2 hPa 0,0 l/m² 0 min 2 min 19 W/m² 6,4 km/h (2 Bft) 97,96 %
27.02.2026 17:16 17,3 °C 16,1 °C 12,2 °C 60 % 1014,2 hPa 0,0 l/m² 0 min 2 min 19 W/m² 12,9 km/h (3 Bft) 100,00 %
27.02.2026 17:18 17,3 °C 16,1 °C 12,2 °C 59 % 1014,2 hPa 0,0 l/m² 0 min 2 min 18 W/m² 9,7 km/h (2 Bft) 100,00 %
27.02.2026 17:20 17,2 °C 16,1 °C 12,2 °C 59 % 1014,2 hPa 0,0 l/m² 0 min 2 min 18 W/m² 16,1 km/h (3 Bft) 97,62 %
27.02.2026 17:22 17,2 °C 16,1 °C 11,7 °C 60 % 1014,2 hPa 0,0 l/m² 0 min 2 min 16 W/m² 19,3 km/h (3 Bft) 96,00 %
27.02.2026 17:24 17,2 °C 16,1 °C 11,7 °C 59 % 1014,2 hPa 0,0 l/m² 0 min 2 min 16 W/m² 12,9 km/h (3 Bft) 95,74 %
27.02.2026 17:26 17,1 °C 16,1 °C 11,7 °C 60 % 1014,2 hPa 0,0 l/m² 0 min 2 min 18 W/m² 9,7 km/h (2 Bft) 97,92 %
27.02.2026 17:28 17,1 °C 15,6 °C 11,7 °C 60 % 1014,2 hPa 0,0 l/m² 0 min 2 min 16 W/m² 3,2 km/h (1 Bft) 97,87 %
27.02.2026 17:30 17,0 °C 15,6 °C 11,7 °C 61 % 1014,2 hPa 0,0 l/m² 0 min 2 min 16 W/m² 6,4 km/h (2 Bft) 97,62 %
27.02.2026 17:32 16,9 °C 15,6 °C 11,1 °C 61 % 1014,2 hPa 0,0 l/m² 0 min 2 min 14 W/m² 9,7 km/h (2 Bft) 98,00 %
27.02.2026 17:34 16,9 °C 15,6 °C 11,1 °C 61 % 1014,3 hPa 0,0 l/m² 0 min 2 min 14 W/m² 9,7 km/h (2 Bft) 97,96 %
27.02.2026 17:36 16,8 °C 15,6 °C 11,1 °C 61 % 1014,2 hPa 0,0 l/m² 0 min 2 min 14 W/m² 6,4 km/h (2 Bft) 95,65 %
27.02.2026 17:38 16,8 °C 15,6 °C 11,1 °C 61 % 1014,2 hPa 0,0 l/m² 0 min 2 min 14 W/m² 3,2 km/h (1 Bft) 95,24 %
27.02.2026 17:40 16,8 °C 15,6 °C 11,1 °C 61 % 1014,2 hPa 0,0 l/m² 0 min 2 min 14 W/m² 6,4 km/h (2 Bft) 98,00 %
27.02.2026 17:42 16,7 °C 15,0 °C 11,1 °C 61 % 1014,2 hPa 0,0 l/m² 0 min 2 min 14 W/m² 3,2 km/h (1 Bft) 95,92 %
27.02.2026 17:44 16,7 °C 15,0 °C 11,1 °C 61 % 1014,2 hPa 0,0 l/m² 0 min 2 min 12 W/m² 3,2 km/h (1 Bft) 97,87 %
27.02.2026 17:46 16,6 °C 15,0 °C 11,1 °C 62 % 1014,2 hPa 0,0 l/m² 0 min 2 min 12 W/m² 6,4 km/h (2 Bft) 97,62 %
27.02.2026 17:48 16,6 °C 15,0 °C 10,6 °C 62 % 1014,2 hPa 0,0 l/m² 0 min 2 min 11 W/m² 3,2 km/h (1 Bft) 97,87 %
27.02.2026 17:50 16,5 °C 15,0 °C 10,6 °C 62 % 1014,2 hPa 0,0 l/m² 0 min 2 min 11 W/m² 3,2 km/h (1 Bft) 97,83 %
27.02.2026 17:52 16,4 °C 15,0 °C 10,6 °C 62 % 1014,2 hPa 0,0 l/m² 0 min 2 min 10 W/m² 3,2 km/h (1 Bft) 98,00 %
27.02.2026 17:54 16,4 °C 15,0 °C 10,6 °C 62 % 1014,3 hPa 0,0 l/m² 0 min 2 min 9 W/m² 6,4 km/h (2 Bft) 98,00 %
27.02.2026 17:56 16,3 °C 15,0 °C 10,6 °C 62 % 1014,3 hPa 0,0 l/m² 0 min 2 min 9 W/m² 6,4 km/h (2 Bft) 95,74 %
27.02.2026 17:58 16,3 °C 15,0 °C 10,6 °C 62 % 1014,3 hPa 0,0 l/m² 0 min 2 min 7 W/m² 3,2 km/h (1 Bft) 93,62 %
27.02.2026 18:00 16,2 °C 15,0 °C 10,6 °C 63 % 1014,3 hPa 0,0 l/m² 0 min 2 min 7 W/m² 3,2 km/h (1 Bft) 97,96 %
27.02.2026 18:02 16,2 °C 14,4 °C 10,6 °C 63 % 1014,3 hPa 0,0 l/m² 0 min 2 min 7 W/m² 3,2 km/h (1 Bft) 97,30 %
27.02.2026 18:04 16,2 °C 14,4 °C 10,0 °C 63 % 1014,3 hPa 0,0 l/m² 0 min 2 min 5 W/m² 3,2 km/h (1 Bft) 96,08 %
27.02.2026 18:10 16,1 °C 14,4 °C 10,0 °C 63 % 1014,5 hPa 0,0 l/m² 0 min 5 min 1 W/m² 6,4 km/h (2 Bft) 99,30 %
27.02.2026 18:12 16,1 °C 14,4 °C 10,0 °C 63 % 1014,5 hPa 0,0 l/m² 0 min 2 min 0 W/m² 3,2 km/h (1 Bft) 100,00 %
27.02.2026 18:14 16,0 °C 14,4 °C 9,4 °C 64 % 1014,5 hPa 0,0 l/m² 0 min 2 min 0 W/m² 0,0 km/h (0 Bft) 97,56 %
27.02.2026 18:16 16,0 °C 14,4 °C 9,4 °C 64 % 1014,5 hPa 0,0 l/m² 0 min 2 min 0 W/m² 3,2 km/h (1 Bft) 95,92 %
27.02.2026 18:18 15,9 °C 14,4 °C 9,4 °C 64 % 1014,5 hPa 0,0 l/m² 0 min 2 min 0 W/m² 6,4 km/h (2 Bft) 98,00 %
27.02.2026 18:20 15,9 °C 14,4 °C 9,4 °C 64 % 1014,6 hPa 0,0 l/m² 0 min 2 min 0 W/m² 3,2 km/h (1 Bft) 97,92 %
27.02.2026 18:22 15,8 °C 14,4 °C 9,4 °C 64 % 1014,6 hPa 0,0 l/m² 0 min 2 min 0 W/m² 3,2 km/h (1 Bft) 97,87 %
27.02.2026 18:24 15,8 °C 14,4 °C 9,4 °C 64 % 1014,6 hPa 0,0 l/m² 0 min 2 min 0 W/m² 6,4 km/h (2 Bft) 95,24 %
27.02.2026 18:26 15,8 °C 14,4 °C 9,4 °C 64 % 1014,6 hPa 0,0 l/m² 0 min 2 min 0 W/m² 3,2 km/h (1 Bft) 98,00 %
27.02.2026 18:28 15,8 °C 14,4 °C 9,4 °C 64 % 1014,6 hPa 0,0 l/m² 0 min 2 min 0 W/m² 3,2 km/h (1 Bft) 97,92 %
27.02.2026 18:30 15,7 °C 14,4 °C 9,4 °C 64 % 1014,7 hPa 0,0 l/m² 0 min 2 min 0 W/m² 9,7 km/h (2 Bft) 97,87 %
27.02.2026 18:32 15,7 °C 14,4 °C 9,4 °C 64 % 1014,6 hPa 0,0 l/m² 0 min 2 min 0 W/m² 3,2 km/h (1 Bft) 95,35 %
27.02.2026 18:34 15,7 °C 14,4 °C 9,4 °C 64 % 1014,6 hPa 0,0 l/m² 0 min 2 min 0 W/m² 3,2 km/h (1 Bft) 97,96 %
27.02.2026 18:36 15,7 °C 14,4 °C 9,4 °C 64 % 1014,6 hPa 0,0 l/m² 0 min 2 min 0 W/m² 3,2 km/h (1 Bft) 95,83 %
27.02.2026 18:38 15,7 °C 14,4 °C 10,0 °C 64 % 1014,7 hPa 0,0 l/m² 0 min 2 min 0 W/m² 6,4 km/h (2 Bft) 95,74 %
27.02.2026 18:40 15,6 °C 14,4 °C 10,0 °C 64 % 1014,7 hPa 0,0 l/m² 0 min 2 min 0 W/m² 9,7 km/h (2 Bft) 93,02 %
27.02.2026 18:42 15,7 °C 15,0 °C 10,6 °C 64 % 1014,7 hPa 0,0 l/m² 0 min 2 min 0 W/m² 12,9 km/h (3 Bft) 96,00 %
27.02.2026 18:44 15,7 °C 15,0 °C 10,6 °C 64 % 1014,8 hPa 0,0 l/m² 0 min 2 min 0 W/m² 12,9 km/h (3 Bft) 95,74 %
27.02.2026 18:46 15,7 °C 15,0 °C 10,6 °C 65 % 1014,8 hPa 0,0 l/m² 0 min 2 min 0 W/m² 12,9 km/h (3 Bft) 95,74 %
27.02.2026 18:48 15,7 °C 15,0 °C 10,6 °C 64 % 1014,8 hPa 0,0 l/m² 0 min 2 min 0 W/m² 12,9 km/h (3 Bft) 95,74 %
27.02.2026 18:50 15,8 °C 15,0 °C 10,6 °C 64 % 1014,7 hPa 0,0 l/m² 0 min 2 min 0 W/m² 12,9 km/h (3 Bft) 95,74 %
27.02.2026 18:52 15,8 °C 15,0 °C 10,6 °C 64 % 1014,8 hPa 0,0 l/m² 0 min 2 min 0 W/m² 9,7 km/h (2 Bft) 95,74 %
27.02.2026 18:54 15,8 °C 15,0 °C 11,1 °C 64 % 1014,7 hPa 0,0 l/m² 0 min 2 min 0 W/m² 12,9 km/h (3 Bft) 94,74 %
27.02.2026 18:56 15,8 °C 15,0 °C 11,1 °C 64 % 1014,8 hPa 0,0 l/m² 0 min 2 min 0 W/m² 12,9 km/h (3 Bft) 100,00 %
27.02.2026 18:58 15,8 °C 15,0 °C 11,1 °C 64 % 1014,8 hPa 0,0 l/m² 0 min 2 min 0 W/m² 6,4 km/h (2 Bft) 95,92 %
27.02.2026 19:00 15,9 °C 15,0 °C 10,6 °C 64 % 1014,8 hPa 0,0 l/m² 0 min 2 min 0 W/m² 6,4 km/h (2 Bft) 98,00 %
27.02.2026 19:02 15,9 °C 15,0 °C 11,1 °C 64 % 1014,8 hPa 0,0 l/m² 0 min 2 min 0 W/m² 12,9 km/h (3 Bft) 97,22 %
27.02.2026 19:04 15,9 °C 15,0 °C 11,1 °C 64 % 1014,8 hPa 0,0 l/m² 0 min 2 min 0 W/m² 12,9 km/h (3 Bft) 98,08 %
27.02.2026 19:06 15,9 °C 15,0 °C 11,1 °C 64 % 1014,8 hPa 0,0 l/m² 0 min 2 min 0 W/m² 9,7 km/h (2 Bft) 97,96 %
27.02.2026 19:08 15,9 °C 15,0 °C 11,1 °C 64 % 1014,8 hPa 0,0 l/m² 0 min 2 min 0 W/m² 12,9 km/h (3 Bft) 97,87 %
27.02.2026 19:10 16,0 °C 15,0 °C 11,1 °C 64 % 1014,8 hPa 0,0 l/m² 0 min 2 min 0 W/m² 12,9 km/h (3 Bft) 93,02 %
27.02.2026 19:12 16,0 °C 15,6 °C 11,1 °C 63 % 1014,9 hPa 0,0 l/m² 0 min 2 min 0 W/m² 12,9 km/h (3 Bft) 100,00 %
27.02.2026 19:14 16,1 °C 15,6 °C 11,1 °C 63 % 1014,9 hPa 0,0 l/m² 0 min 2 min 0 W/m² 16,1 km/h (3 Bft) 97,56 %
27.02.2026 19:16 16,1 °C 15,6 °C 11,1 °C 63 % 1014,9 hPa 0,0 l/m² 0 min 2 min 0 W/m² 12,9 km/h (3 Bft) 100,00 %
27.02.2026 19:18 16,1 °C 15,6 °C 11,1 °C 63 % 1014,9 hPa 0,0 l/m² 0 min 2 min 0 W/m² 16,1 km/h (3 Bft) 100,00 %
27.02.2026 19:20 16,1 °C 15,6 °C 11,1 °C 64 % 1014,9 hPa 0,0 l/m² 0 min 2 min 0 W/m² 12,9 km/h (3 Bft) 100,00 %
27.02.2026 19:22 16,1 °C 15,6 °C 11,1 °C 63 % 1014,9 hPa 0,0 l/m² 0 min 2 min 0 W/m² 12,9 km/h (3 Bft) 100,00 %
27.02.2026 19:24 16,1 °C 15,0 °C 11,1 °C 64 % 1014,9 hPa 0,0 l/m² 0 min 2 min 0 W/m² 16,1 km/h (3 Bft) 98,00 %
27.02.2026 19:26 16,1 °C 15,6 °C 11,1 °C 64 % 1014,9 hPa 0,0 l/m² 0 min 2 min 0 W/m² 16,1 km/h (3 Bft) 100,00 %
27.02.2026 19:28 16,2 °C 15,6 °C 11,1 °C 63 % 1015,0 hPa 0,0 l/m² 0 min 2 min 0 W/m² 22,5 km/h (4 Bft) 98,21 %
27.02.2026 19:30 16,2 °C 15,6 °C 11,1 °C 63 % 1014,9 hPa 0,0 l/m² 0 min 2 min 0 W/m² 25,7 km/h (4 Bft) 100,00 %
27.02.2026 19:32 16,3 °C 15,6 °C 11,7 °C 63 % 1015,0 hPa 0,0 l/m² 0 min 2 min 0 W/m² 35,4 km/h (5 Bft) 100,00 %
27.02.2026 19:34 16,4 °C 15,6 °C 11,7 °C 63 % 1015,0 hPa 0,0 l/m² 0 min 2 min 0 W/m² 32,2 km/h (5 Bft) 98,18 %
27.02.2026 19:36 16,4 °C 15,6 °C 11,7 °C 63 % 1015,0 hPa 0,0 l/m² 0 min 2 min 0 W/m² 16,1 km/h (3 Bft) 100,00 %
27.02.2026 19:38 16,4 °C 15,6 °C 11,1 °C 63 % 1015,0 hPa 0,0 l/m² 0 min 2 min 0 W/m² 16,1 km/h (3 Bft) 100,00 %
27.02.2026 19:40 16,4 °C 15,6 °C 11,7 °C 63 % 1015,0 hPa 0,0 l/m² 0 min 2 min 0 W/m² 29,0 km/h (5 Bft) 100,00 %
27.02.2026 19:42 16,4 °C 15,6 °C 11,1 °C 63 % 1015,0 hPa 0,0 l/m² 0 min 2 min 0 W/m² 16,1 km/h (3 Bft) 100,00 %
27.02.2026 19:44 16,4 °C 15,6 °C 11,1 °C 64 % 1015,0 hPa 0,0 l/m² 0 min 2 min 0 W/m² 9,7 km/h (2 Bft) 100,00 %
27.02.2026 19:46 16,4 °C 15,6 °C 11,1 °C 64 % 1015,0 hPa 0,0 l/m² 0 min 2 min 0 W/m² 19,3 km/h (3 Bft) 100,00 %
27.02.2026 19:48 16,4 °C 15,6 °C 11,1 °C 64 % 1015,1 hPa 0,0 l/m² 0 min 2 min 0 W/m² 16,1 km/h (3 Bft) 100,00 %
27.02.2026 19:50 16,4 °C 15,6 °C 11,1 °C 64 % 1015,0 hPa 0,0 l/m² 0 min 2 min 0 W/m² 19,3 km/h (3 Bft) 100,00 %
27.02.2026 19:52 16,4 °C 15,6 °C 11,1 °C 64 % 1015,1 hPa 0,0 l/m² 0 min 2 min 0 W/m² 12,9 km/h (3 Bft) 98,21 %
27.02.2026 19:54 16,4 °C 15,6 °C 11,1 °C 64 % 1015,1 hPa 0,0 l/m² 0 min 2 min 0 W/m² 16,1 km/h (3 Bft) 100,00 %
27.02.2026 19:56 16,4 °C 15,6 °C 10,6 °C 64 % 1015,1 hPa 0,0 l/m² 0 min 2 min 0 W/m² 12,9 km/h (3 Bft) 97,37 %
27.02.2026 19:58 16,3 °C 15,6 °C 10,6 °C 65 % 1015,1 hPa 0,0 l/m² 0 min 2 min 0 W/m² 9,7 km/h (2 Bft) 100,00 %
27.02.2026 20:00 16,3 °C 15,0 °C 10,6 °C 65 % 1015,1 hPa 0,0 l/m² 0 min 2 min 0 W/m² 12,9 km/h (3 Bft) 100,00 %
27.02.2026 20:02 16,3 °C 15,0 °C 10,6 °C 65 % 1015,1 hPa 0,0 l/m² 0 min 2 min 0 W/m² 6,4 km/h (2 Bft) 98,21 %
27.02.2026 20:04 16,3 °C 15,0 °C 10,6 °C 65 % 1015,1 hPa 0,0 l/m² 0 min 2 min 0 W/m² 9,7 km/h (2 Bft) 97,37 %
27.02.2026 20:06 16,2 °C 15,0 °C 10,6 °C 66 % 1015,1 hPa 0,0 l/m² 0 min 2 min 0 W/m² 25,7 km/h (4 Bft) 100,00 %
27.02.2026 20:08 16,2 °C 15,0 °C 10,6 °C 66 % 1015,1 hPa 0,0 l/m² 0 min 2 min 0 W/m² 12,9 km/h (3 Bft) 100,00 %
27.02.2026 20:10 16,1 °C 15,0 °C 10,0 °C 66 % 1015,1 hPa 0,0 l/m² 0 min 2 min 0 W/m² 12,9 km/h (3 Bft) 100,00 %
27.02.2026 20:12 16,1 °C 15,0 °C 10,6 °C 67 % 1015,1 hPa 0,0 l/m² 0 min 2 min 0 W/m² 19,3 km/h (3 Bft) 95,74 %
27.02.2026 20:14 16,1 °C 15,0 °C 10,6 °C 66 % 1015,0 hPa 0,0 l/m² 0 min 2 min 0 W/m² 19,3 km/h (3 Bft) 97,67 %
27.02.2026 20:16 16,1 °C 15,0 °C 10,6 °C 67 % 1015,0 hPa 0,0 l/m² 0 min 2 min 0 W/m² 22,5 km/h (4 Bft) 98,00 %
27.02.2026 20:18 16,0 °C 15,0 °C 10,6 °C 66 % 1015,1 hPa 0,0 l/m² 0 min 2 min 0 W/m² 19,3 km/h (3 Bft) 93,75 %
27.02.2026 20:20 16,0 °C 15,0 °C 10,6 °C 66 % 1015,0 hPa 0,0 l/m² 0 min 2 min 0 W/m² 19,3 km/h (3 Bft) 97,83 %
27.02.2026 20:22 16,0 °C 15,0 °C 11,1 °C 66 % 1015,0 hPa 0,0 l/m² 0 min 2 min 0 W/m² 25,7 km/h (4 Bft) 97,67 %
27.02.2026 20:24 16,0 °C 15,0 °C 11,1 °C 66 % 1015,0 hPa 0,0 l/m² 0 min 2 min 0 W/m² 22,5 km/h (4 Bft) 98,00 %
27.02.2026 20:26 15,9 °C 15,0 °C 11,1 °C 66 % 1015,1 hPa 0,0 l/m² 0 min 2 min 0 W/m² 25,7 km/h (4 Bft) 97,92 %
27.02.2026 20:28 16,0 °C 15,0 °C 11,1 °C 66 % 1015,1 hPa 0,0 l/m² 0 min 2 min 0 W/m² 35,4 km/h (5 Bft) 97,87 %
27.02.2026 20:30 16,0 °C 15,0 °C 11,1 °C 65 % 1015,2 hPa 0,0 l/m² 0 min 2 min 0 W/m² 51,5 km/h (7 Bft) 97,67 %
27.02.2026 20:32 16,1 °C 15,6 °C 11,1 °C 65 % 1015,1 hPa 0,0 l/m² 0 min 2 min 0 W/m² 51,5 km/h (7 Bft) 94,00 %
27.02.2026 20:34 16,1 °C 15,6 °C 11,1 °C 65 % 1015,2 hPa 0,0 l/m² 0 min 2 min 0 W/m² 22,5 km/h (4 Bft) 95,74 %
27.02.2026 20:36 16,1 °C 15,0 °C 11,1 °C 65 % 1015,2 hPa 0,0 l/m² 0 min 2 min 0 W/m² 32,2 km/h (5 Bft) 93,62 %
27.02.2026 20:38 16,1 °C 15,0 °C 11,1 °C 65 % 1015,2 hPa 0,0 l/m² 0 min 2 min 0 W/m² 25,7 km/h (4 Bft) 93,02 %
27.02.2026 20:40 16,1 °C 15,0 °C 11,1 °C 65 % 1015,2 hPa 0,0 l/m² 0 min 2 min 0 W/m² 41,8 km/h (6 Bft) 92,00 %
27.02.2026 20:42 16,1 °C 15,0 °C 11,1 °C 65 % 1015,3 hPa 0,0 l/m² 0 min 2 min 0 W/m² 19,3 km/h (3 Bft) 93,75 %
27.02.2026 20:44 16,0 °C 15,0 °C 11,1 °C 66 % 1015,3 hPa 0,0 l/m² 0 min 2 min 0 W/m² 22,5 km/h (4 Bft) 91,30 %
27.02.2026 20:46 15,9 °C 15,0 °C 11,1 °C 66 % 1015,3 hPa 0,0 l/m² 0 min 2 min 0 W/m² 35,4 km/h (5 Bft) 93,62 %
27.02.2026 20:48 15,9 °C 15,0 °C 11,1 °C 66 % 1015,4 hPa 0,0 l/m² 0 min 2 min 0 W/m² 29,0 km/h (5 Bft) 93,02 %
27.02.2026 20:50 15,9 °C 15,0 °C 11,1 °C 66 % 1015,4 hPa 0,0 l/m² 0 min 2 min 0 W/m² 35,4 km/h (5 Bft) 92,00 %
27.02.2026 20:52 15,8 °C 15,0 °C 11,1 °C 67 % 1015,4 hPa 0,0 l/m² 0 min 2 min 0 W/m² 16,1 km/h (3 Bft) 89,58 %
27.02.2026 20:54 15,8 °C 15,0 °C 10,6 °C 67 % 1015,3 hPa 0,0 l/m² 0 min 2 min 0 W/m² 22,5 km/h (4 Bft) 90,00 %
27.02.2026 20:56 15,7 °C 14,4 °C 10,6 °C 68 % 1015,3 hPa 0,0 l/m² 0 min 2 min 0 W/m² 29,0 km/h (5 Bft) 91,43 %
27.02.2026 20:58 15,7 °C 14,4 °C 10,6 °C 68 % 1015,4 hPa 0,0 l/m² 0 min 2 min 0 W/m² 29,0 km/h (5 Bft) 93,88 %
27.02.2026 21:00 15,7 °C 14,4 °C 10,6 °C 68 % 1015,4 hPa 0,0 l/m² 0 min 2 min 0 W/m² 19,3 km/h (3 Bft) 94,55 %
27.02.2026 21:02 15,6 °C 14,4 °C 10,6 °C 69 % 1015,4 hPa 0,0 l/m² 0 min 2 min 0 W/m² 35,4 km/h (5 Bft) 96,00 %
27.02.2026 21:04 15,6 °C 14,4 °C 10,6 °C 69 % 1015,4 hPa 0,0 l/m² 0 min 2 min 0 W/m² 19,3 km/h (3 Bft) 97,87 %
27.02.2026 21:06 15,6 °C 14,4 °C 10,6 °C 69 % 1015,4 hPa 0,0 l/m² 0 min 2 min 0 W/m² 19,3 km/h (3 Bft) 96,15 %
27.02.2026 21:08 15,5 °C 14,4 °C 10,6 °C 69 % 1015,3 hPa 0,0 l/m² 0 min 2 min 0 W/m² 16,1 km/h (3 Bft) 95,38 %
27.02.2026 21:10 15,5 °C 14,4 °C 10,6 °C 69 % 1015,4 hPa 0,0 l/m² 0 min 2 min 0 W/m² 22,5 km/h (4 Bft) 100,00 %
27.02.2026 21:12 15,4 °C 14,4 °C 10,6 °C 70 % 1015,3 hPa 0,0 l/m² 0 min 2 min 0 W/m² 19,3 km/h (3 Bft) 97,37 %
27.02.2026 21:14 15,4 °C 14,4 °C 10,6 °C 70 % 1015,2 hPa 0,0 l/m² 0 min 2 min 0 W/m² 22,5 km/h (4 Bft) 97,96 %
27.02.2026 21:16 15,4 °C 14,4 °C 10,6 °C 70 % 1015,3 hPa 0,0 l/m² 0 min 2 min 0 W/m² 16,1 km/h (3 Bft) 96,00 %
27.02.2026 21:18 15,3 °C 14,4 °C 10,0 °C 70 % 1015,3 hPa 0,0 l/m² 0 min 2 min 0 W/m² 19,3 km/h (3 Bft) 97,87 %
27.02.2026 21:20 15,3 °C 14,4 °C 10,6 °C 71 % 1015,3 hPa 0,0 l/m² 0 min 2 min 0 W/m² 25,7 km/h (4 Bft) 97,67 %
27.02.2026 21:22 15,3 °C 14,4 °C 10,0 °C 71 % 1015,3 hPa 0,0 l/m² 0 min 2 min 0 W/m² 19,3 km/h (3 Bft) 96,00 %
27.02.2026 21:24 15,2 °C 13,9 °C 10,0 °C 71 % 1015,2 hPa 0,0 l/m² 0 min 2 min 0 W/m² 16,1 km/h (3 Bft) 97,87 %
27.02.2026 21:26 15,2 °C 13,9 °C 10,0 °C 71 % 1015,2 hPa 0,0 l/m² 0 min 2 min 0 W/m² 12,9 km/h (3 Bft) 97,73 %
27.02.2026 21:28 15,2 °C 13,9 °C 10,0 °C 72 % 1015,3 hPa 0,0 l/m² 0 min 2 min 0 W/m² 9,7 km/h (2 Bft) 100,00 %
27.02.2026 21:30 15,1 °C 13,9 °C 10,0 °C 72 % 1015,3 hPa 0,0 l/m² 0 min 2 min 0 W/m² 16,1 km/h (3 Bft) 100,00 %
27.02.2026 21:32 15,1 °C 13,9 °C 9,4 °C 72 % 1015,3 hPa 0,0 l/m² 0 min 2 min 0 W/m² 22,5 km/h (4 Bft) 100,00 %
27.02.2026 21:34 15,0 °C 13,9 °C 9,4 °C 73 % 1015,3 hPa 0,0 l/m² 0 min 2 min 0 W/m² 16,1 km/h (3 Bft) 95,92 %
27.02.2026 21:36 14,9 °C 13,9 °C 9,4 °C 73 % 1015,3 hPa 0,0 l/m² 0 min 2 min 0 W/m² 19,3 km/h (3 Bft) 100,00 %
27.02.2026 21:38 14,9 °C 13,9 °C 9,4 °C 73 % 1015,3 hPa 0,0 l/m² 0 min 2 min 0 W/m² 16,1 km/h (3 Bft) 100,00 %
27.02.2026 21:40 14,9 °C 13,9 °C 9,4 °C 74 % 1015,3 hPa 0,0 l/m² 0 min 2 min 0 W/m² 12,9 km/h (3 Bft) 96,00 %
27.02.2026 21:42 14,8 °C 13,9 °C 9,4 °C 74 % 1015,2 hPa 0,0 l/m² 0 min 2 min 0 W/m² 12,9 km/h (3 Bft) 100,00 %
27.02.2026 21:44 14,8 °C 13,3 °C 9,4 °C 74 % 1015,2 hPa 0,0 l/m² 0 min 2 min 0 W/m² 12,9 km/h (3 Bft) 100,00 %
27.02.2026 21:46 14,7 °C 13,3 °C 9,4 °C 75 % 1015,2 hPa 0,0 l/m² 0 min 2 min 0 W/m² 3,2 km/h (1 Bft) 98,00 %
27.02.2026 21:48 14,7 °C 13,3 °C 8,9 °C 75 % 1015,3 hPa 0,0 l/m² 0 min 2 min 0 W/m² 6,4 km/h (2 Bft) 100,00 %
27.02.2026 21:50 14,6 °C 13,3 °C 8,9 °C 76 % 1015,2 hPa 0,0 l/m² 0 min 2 min 0 W/m² 12,9 km/h (3 Bft) 100,00 %
27.02.2026 21:52 14,6 °C 13,3 °C 8,9 °C 76 % 1015,2 hPa 0,0 l/m² 0 min 2 min 0 W/m² 19,3 km/h (3 Bft) 98,00 %
27.02.2026 21:54 14,5 °C 13,3 °C 8,9 °C 76 % 1015,2 hPa 0,0 l/m² 0 min 2 min 0 W/m² 12,9 km/h (3 Bft) 97,96 %
27.02.2026 21:56 14,4 °C 13,3 °C 8,9 °C 76 % 1015,2 hPa 0,0 l/m² 0 min 2 min 0 W/m² 3,2 km/h (1 Bft) 100,00 %
27.02.2026 21:58 14,4 °C 13,3 °C 8,9 °C 76 % 1015,3 hPa 0,0 l/m² 0 min 2 min 0 W/m² 12,9 km/h (3 Bft) 98,18 %
27.02.2026 22:00 14,3 °C 13,3 °C 8,9 °C 77 % 1015,3 hPa 0,0 l/m² 0 min 2 min 0 W/m² 6,4 km/h (2 Bft) 98,00 %
27.02.2026 22:02 14,3 °C 13,3 °C 8,9 °C 77 % 1015,3 hPa 0,0 l/m² 0 min 2 min 0 W/m² 3,2 km/h (1 Bft) 100,00 %
27.02.2026 22:04 14,3 °C 13,3 °C 8,9 °C 77 % 1015,3 hPa 0,0 l/m² 0 min 2 min 0 W/m² 3,2 km/h (1 Bft) 100,00 %
27.02.2026 22:06 14,3 °C 13,3 °C 8,9 °C 78 % 1015,4 hPa 0,0 l/m² 0 min 2 min 0 W/m² 6,4 km/h (2 Bft) 100,00 %
27.02.2026 22:08 14,3 °C 13,3 °C 8,9 °C 78 % 1015,4 hPa 0,0 l/m² 0 min 2 min 0 W/m² 3,2 km/h (1 Bft) 100,00 %
27.02.2026 22:10 14,3 °C 13,3 °C 8,9 °C 78 % 1015,4 hPa 0,0 l/m² 0 min 2 min 0 W/m² 3,2 km/h (1 Bft) 100,00 %
27.02.2026 22:12 14,3 °C 12,8 °C 8,9 °C 78 % 1015,4 hPa 0,0 l/m² 0 min 2 min 0 W/m² 6,4 km/h (2 Bft) 100,00 %
27.02.2026 22:14 14,3 °C 12,8 °C 8,9 °C 78 % 1015,4 hPa 0,0 l/m² 0 min 2 min 0 W/m² 9,7 km/h (2 Bft) 100,00 %
27.02.2026 22:16 14,2 °C 12,8 °C 8,9 °C 79 % 1015,5 hPa 0,0 l/m² 0 min 2 min 0 W/m² 6,4 km/h (2 Bft) 100,00 %
27.02.2026 22:18 14,2 °C 12,8 °C 8,9 °C 79 % 1015,5 hPa 0,0 l/m² 0 min 2 min 0 W/m² 12,9 km/h (3 Bft) 100,00 %
27.02.2026 22:20 14,1 °C 12,8 °C 8,9 °C 79 % 1015,5 hPa 0,0 l/m² 0 min 2 min 0 W/m² 6,4 km/h (2 Bft) 100,00 %
27.02.2026 22:22 14,1 °C 12,8 °C 8,3 °C 79 % 1015,5 hPa 0,0 l/m² 0 min 2 min 0 W/m² 9,7 km/h (2 Bft) 100,00 %
27.02.2026 22:24 14,1 °C 12,8 °C 8,3 °C 80 % 1015,5 hPa 0,0 l/m² 0 min 2 min 0 W/m² 6,4 km/h (2 Bft) 98,15 %
27.02.2026 22:26 14,0 °C 12,8 °C 7,8 °C 80 % 1015,5 hPa 0,0 l/m² 0 min 2 min 0 W/m² 9,7 km/h (2 Bft) 97,37 %
27.02.2026 22:28 13,9 °C 12,8 °C 7,2 °C 80 % 1015,6 hPa 0,2 l/m² 0 min 2 min 0 W/m² 12,9 km/h (3 Bft) 97,96 %
27.02.2026 22:30 13,9 °C 12,8 °C 7,2 °C 81 % 1015,6 hPa 0,0 l/m² 0 min 2 min 0 W/m² 9,7 km/h (2 Bft) 100,00 %
27.02.2026 22:32 13,8 °C 12,8 °C 7,2 °C 81 % 1015,6 hPa 0,0 l/m² 0 min 2 min 0 W/m² 16,1 km/h (3 Bft) 98,11 %
27.02.2026 22:34 13,8 °C 12,2 °C 7,2 °C 81 % 1015,6 hPa 0,0 l/m² 0 min 2 min 0 W/m² 0,0 km/h (0 Bft) 97,37 %
27.02.2026 22:36 13,7 °C 12,2 °C 7,2 °C 82 % 1015,6 hPa 0,0 l/m² 0 min 2 min 0 W/m² 3,2 km/h (1 Bft) 97,96 %
27.02.2026 22:38 13,7 °C 12,2 °C 7,2 °C 83 % 1015,7 hPa 0,0 l/m² 0 min 2 min 0 W/m² 6,4 km/h (2 Bft) 97,87 %
27.02.2026 22:40 13,7 °C 12,2 °C 7,2 °C 83 % 1015,7 hPa 0,0 l/m² 0 min 2 min 0 W/m² 6,4 km/h (2 Bft) 98,11 %
27.02.2026 22:42 13,6 °C 12,2 °C 7,2 °C 83 % 1015,7 hPa 0,0 l/m² 0 min 2 min 0 W/m² 3,2 km/h (1 Bft) 94,87 %
27.02.2026 22:44 13,6 °C 12,2 °C 7,2 °C 83 % 1015,7 hPa 0,0 l/m² 0 min 2 min 0 W/m² 3,2 km/h (1 Bft) 95,83 %
27.02.2026 22:46 13,6 °C 12,2 °C 7,2 °C 84 % 1015,7 hPa 0,0 l/m² 0 min 2 min 0 W/m² 3,2 km/h (1 Bft) 97,87 %
27.02.2026 22:48 13,6 °C 12,2 °C 7,2 °C 84 % 1015,8 hPa 0,0 l/m² 0 min 2 min 0 W/m² 0,0 km/h (0 Bft) 96,30 %
27.02.2026 22:50 13,5 °C 12,2 °C 7,2 °C 84 % 1015,7 hPa 0,0 l/m² 0 min 2 min 0 W/m² 3,2 km/h (1 Bft) 97,37 %
27.02.2026 22:52 13,5 °C 12,2 °C 7,2 °C 84 % 1015,8 hPa 0,2 l/m² 0 min 2 min 0 W/m² 3,2 km/h (1 Bft) 95,92 %
27.02.2026 22:54 13,4 °C 12,2 °C 7,2 °C 84 % 1015,8 hPa 0,0 l/m² 0 min 2 min 0 W/m² 3,2 km/h (1 Bft) 95,92 %
27.02.2026 22:56 13,4 °C 11,7 °C 7,2 °C 85 % 1015,8 hPa 0,0 l/m² 0 min 2 min 0 W/m² 0,0 km/h (0 Bft) 100,00 %
27.02.2026 22:58 13,3 °C 11,7 °C 7,2 °C 85 % 1015,8 hPa 0,0 l/m² 0 min 2 min 0 W/m² 0,0 km/h (0 Bft) 100,00 %
27.02.2026 23:00 13,3 °C 11,7 °C 7,2 °C 85 % 1015,8 hPa 0,0 l/m² 0 min 2 min 0 W/m² 0,0 km/h (0 Bft) 98,15 %
27.02.2026 23:02 13,3 °C 11,7 °C 7,2 °C 86 % 1015,8 hPa 0,2 l/m² 0 min 2 min 0 W/m² 0,0 km/h (0 Bft) 100,00 %
27.02.2026 23:04 13,3 °C 11,7 °C 7,2 °C 86 % 1015,8 hPa 0,0 l/m² 0 min 2 min 0 W/m² 0,0 km/h (0 Bft) 97,78 %
27.02.2026 23:06 13,2 °C 11,7 °C 7,2 °C 86 % 1015,8 hPa 0,0 l/m² 0 min 2 min 0 W/m² 0,0 km/h (0 Bft) 100,00 %
27.02.2026 23:08 13,2 °C 11,7 °C 7,2 °C 86 % 1015,8 hPa 0,0 l/m² 0 min 2 min 0 W/m² 0,0 km/h (0 Bft) 97,37 %
27.02.2026 23:10 13,2 °C 11,7 °C 7,2 °C 86 % 1015,8 hPa 0,0 l/m² 0 min 2 min 0 W/m² 0,0 km/h (0 Bft) 97,87 %
27.02.2026 23:12 13,2 °C 11,7 °C 7,2 °C 87 % 1015,8 hPa 0,0 l/m² 0 min 2 min 0 W/m² 0,0 km/h (0 Bft) 97,92 %
27.02.2026 23:14 13,1 °C 11,7 °C 7,2 °C 87 % 1015,8 hPa 0,0 l/m² 0 min 2 min 0 W/m² 0,0 km/h (0 Bft) 95,74 %
27.02.2026 23:16 13,1 °C 11,7 °C 7,2 °C 87 % 1015,7 hPa 0,2 l/m² 0 min 2 min 0 W/m² 0,0 km/h (0 Bft) 96,30 %
27.02.2026 23:18 13,1 °C 11,7 °C 7,2 °C 87 % 1015,7 hPa 0,0 l/m² 0 min 2 min 0 W/m² 0,0 km/h (0 Bft) 94,74 %
27.02.2026 23:20 13,1 °C 11,7 °C 7,2 °C 87 % 1015,7 hPa 0,0 l/m² 0 min 2 min 0 W/m² 0,0 km/h (0 Bft) 95,83 %
27.02.2026 23:22 13,0 °C 11,7 °C 7,2 °C 87 % 1015,7 hPa 0,0 l/m² 0 min 2 min 0 W/m² 0,0 km/h (0 Bft) 95,74 %
27.02.2026 23:24 13,0 °C 11,7 °C 7,2 °C 88 % 1015,7 hPa 0,0 l/m² 0 min 2 min 0 W/m² 0,0 km/h (0 Bft) 96,36 %
27.02.2026 23:26 13,0 °C 11,1 °C 7,2 °C 88 % 1015,7 hPa 0,0 l/m² 0 min 2 min 0 W/m² 0,0 km/h (0 Bft) 86,84 %
27.02.2026 23:28 12,9 °C 11,1 °C 7,2 °C 88 % 1015,7 hPa 0,0 l/m² 0 min 2 min 0 W/m² 0,0 km/h (0 Bft) 93,75 %
27.02.2026 23:30 12,9 °C 11,1 °C 7,2 °C 88 % 1015,6 hPa 0,2 l/m² 0 min 2 min 0 W/m² 0,0 km/h (0 Bft) 93,48 %
27.02.2026 23:32 12,9 °C 11,1 °C 7,2 °C 88 % 1015,6 hPa 0,0 l/m² 0 min 2 min 0 W/m² 0,0 km/h (0 Bft) 92,73 %
27.02.2026 23:34 12,9 °C 11,1 °C 7,2 °C 88 % 1015,6 hPa 0,0 l/m² 0 min 2 min 0 W/m² 0,0 km/h (0 Bft) 94,74 %
27.02.2026 23:36 12,9 °C 11,1 °C 7,2 °C 89 % 1015,5 hPa 0,0 l/m² 0 min 2 min 0 W/m² 0,0 km/h (0 Bft) 95,83 %
27.02.2026 23:38 12,8 °C 11,1 °C 7,2 °C 89 % 1015,4 hPa 0,0 l/m² 0 min 2 min 0 W/m² 0,0 km/h (0 Bft) 91,49 %
27.02.2026 23:40 12,8 °C 11,1 °C 7,2 °C 89 % 1015,5 hPa 0,0 l/m² 0 min 2 min 0 W/m² 0,0 km/h (0 Bft) 96,30 %
27.02.2026 23:42 12,8 °C 11,1 °C 7,2 °C 89 % 1015,4 hPa 0,0 l/m² 0 min 2 min 0 W/m² 0,0 km/h (0 Bft) 94,74 %
27.02.2026 23:44 12,8 °C 11,1 °C 7,2 °C 89 % 1015,4 hPa 0,0 l/m² 0 min 2 min 0 W/m² 0,0 km/h (0 Bft) 95,83 %
27.02.2026 23:46 12,8 °C 11,1 °C 7,2 °C 89 % 1015,4 hPa 0,0 l/m² 0 min 2 min 0 W/m² 0,0 km/h (0 Bft) 95,74 %
27.02.2026 23:48 12,8 °C 11,1 °C 7,2 °C 89 % 1015,4 hPa 0,0 l/m² 0 min 2 min 0 W/m² 0,0 km/h (0 Bft) 94,55 %
27.02.2026 23:50 12,7 °C 11,1 °C 7,2 °C 89 % 1015,5 hPa 0,0 l/m² 0 min 2 min 0 W/m² 0,0 km/h (0 Bft) 97,37 %
27.02.2026 23:52 12,7 °C 11,1 °C 7,2 °C 89 % 1015,5 hPa 0,0 l/m² 0 min 2 min 0 W/m² 0,0 km/h (0 Bft) 97,87 %
27.02.2026 23:54 12,7 °C 10,6 °C 7,2 °C 89 % 1015,4 hPa 0,0 l/m² 0 min 2 min 0 W/m² 0,0 km/h (0 Bft) 98,00 %
27.02.2026 23:56 12,7 °C 10,6 °C 7,2 °C 90 % 1015,4 hPa 0,0 l/m² 0 min 2 min 0 W/m² 0,0 km/h (0 Bft) 97,87 %
27.02.2026 23:58 12,6 °C 10,6 °C 7,2 °C 90 % 1015,4 hPa 0,0 l/m² 0 min 2 min 0 W/m² 0,0 km/h (0 Bft) 97,37 %
_ Min-Zeit 07:36 07:22 06:38 14:42 16:04 - - - - 00:56 00:12
Minimum _ 9,0 °C 7,8 °C 4,4 °C 53 % 1014,1 hPa - - - - 0,0 km/h (0 Bft) 8,70 %
_ Max-Zeit 14:14 12:48 11:36 08:22 00:54 22:28 12:08 18:10 13:32 20:30 00:00
Maximum _ 20,8 °C 27,2 °C 19,4 °C 95 % 1019,0 hPa 0,2 l/m² 4 min 5 min 551 W/m² 51,5 km/h
S-SW (7 Bft)
100,00 %
Durchschnitt _ 14,2 °C 14,7 °C 9,6 °C 77 % 1016,1 hPa #1,2 l/m² #6:46 h #23:59 h 267 W/m² 13,9 km/h (3 Bft) 97,11 %
© 2026 W. Hausmann